<?xml version="1.0" encoding="UTF-8" standalone="no" ?>
<gpx xmlns="http://www.topografix.com/GPX/1/1" xmlns:xsi="http://www.w3.org/2001/XMLSchema-instance" xsi:schemaLocation="http://www.topografix.com/GPX/1/1 http://www.topografix.com/GPX/1/1/gpx.xsd" version="1.1" creator="VisuGPX - https://www.visugpx.com">
  <metadata>
    <name>Pic de bacanère en boucle</name>
    <desc><![CDATA[Pic de bacanère en boucle]]></desc>
  </metadata>
  <trk>
    <name><![CDATA[Randocourse]]></name>
    <trkseg>
      <trkpt lat="42.8516" lon="0.66602">
        <ele>1887.2053222656</ele>
        <time>2011-06-14T08:48:42Z</time>
      </trkpt>
      <trkpt lat="42.8516" lon="0.66602">
        <ele>1887.2053222656</ele>
        <time>2011-06-14T08:48:43Z</time>
      </trkpt>
      <trkpt lat="42.8516" lon="0.66604">
        <ele>1887.2053222656</ele>
        <time>2011-06-14T08:48:53Z</time>
      </trkpt>
      <trkpt lat="42.85163" lon="0.66607">
        <ele>1887.2053222656</ele>
        <time>2011-06-14T08:49:01Z</time>
      </trkpt>
      <trkpt lat="42.85165" lon="0.66611">
        <ele>1889.6086425781</ele>
        <time>2011-06-14T08:49:07Z</time>
      </trkpt>
      <trkpt lat="42.85166" lon="0.66616">
        <ele>1890.5698242188</ele>
        <time>2011-06-14T08:49:13Z</time>
      </trkpt>
      <trkpt lat="42.85168" lon="0.66626">
        <ele>1892.0119628906</ele>
        <time>2011-06-14T08:49:20Z</time>
      </trkpt>
      <trkpt lat="42.85168" lon="0.66629">
        <ele>1892.4926757812</ele>
        <time>2011-06-14T08:49:22Z</time>
      </trkpt>
      <trkpt lat="42.85169" lon="0.66641">
        <ele>1893.9345703125</ele>
        <time>2011-06-14T08:49:30Z</time>
      </trkpt>
      <trkpt lat="42.85172" lon="0.66653">
        <ele>1895.3764648438</ele>
        <time>2011-06-14T08:49:38Z</time>
      </trkpt>
      <trkpt lat="42.85173" lon="0.66663">
        <ele>1895.3764648438</ele>
        <time>2011-06-14T08:49:45Z</time>
      </trkpt>
      <trkpt lat="42.85173" lon="0.6667">
        <ele>1894.8957519531</ele>
        <time>2011-06-14T08:49:52Z</time>
      </trkpt>
      <trkpt lat="42.85173" lon="0.66671">
        <ele>1894.8957519531</ele>
        <time>2011-06-14T08:49:59Z</time>
      </trkpt>
      <trkpt lat="42.85174" lon="0.6667">
        <ele>1895.3764648438</ele>
        <time>2011-06-14T08:50:18Z</time>
      </trkpt>
      <trkpt lat="42.8518" lon="0.66671">
        <ele>1895.8571777344</ele>
        <time>2011-06-14T08:50:25Z</time>
      </trkpt>
      <trkpt lat="42.85185" lon="0.66673">
        <ele>1897.2990722656</ele>
        <time>2011-06-14T08:50:30Z</time>
      </trkpt>
      <trkpt lat="42.8519" lon="0.66686">
        <ele>1896.337890625</ele>
        <time>2011-06-14T08:50:38Z</time>
      </trkpt>
      <trkpt lat="42.85192" lon="0.66698">
        <ele>1894.8957519531</ele>
        <time>2011-06-14T08:50:45Z</time>
      </trkpt>
      <trkpt lat="42.85193" lon="0.6671">
        <ele>1894.4150390625</ele>
        <time>2011-06-14T08:50:52Z</time>
      </trkpt>
      <trkpt lat="42.85193" lon="0.66723">
        <ele>1895.3764648438</ele>
        <time>2011-06-14T08:51:01Z</time>
      </trkpt>
      <trkpt lat="42.85189" lon="0.66723">
        <ele>1894.4150390625</ele>
        <time>2011-06-14T08:51:11Z</time>
      </trkpt>
      <trkpt lat="42.85192" lon="0.66728">
        <ele>1895.3764648438</ele>
        <time>2011-06-14T08:51:19Z</time>
      </trkpt>
      <trkpt lat="42.85193" lon="0.66737">
        <ele>1895.3764648438</ele>
        <time>2011-06-14T08:51:25Z</time>
      </trkpt>
      <trkpt lat="42.85193" lon="0.66738">
        <ele>1895.3764648438</ele>
        <time>2011-06-14T08:51:26Z</time>
      </trkpt>
      <trkpt lat="42.85195" lon="0.6675">
        <ele>1897.2990722656</ele>
        <time>2011-06-14T08:51:33Z</time>
      </trkpt>
      <trkpt lat="42.85194" lon="0.66762">
        <ele>1899.2216796875</ele>
        <time>2011-06-14T08:51:40Z</time>
      </trkpt>
      <trkpt lat="42.85194" lon="0.6677">
        <ele>1900.1833496094</ele>
        <time>2011-06-14T08:51:45Z</time>
      </trkpt>
      <trkpt lat="42.85193" lon="0.66775">
        <ele>1901.14453125</ele>
        <time>2011-06-14T08:51:48Z</time>
      </trkpt>
      <trkpt lat="42.85189" lon="0.6679">
        <ele>1903.5478515625</ele>
        <time>2011-06-14T08:51:58Z</time>
      </trkpt>
      <trkpt lat="42.85187" lon="0.668">
        <ele>1906.431640625</ele>
        <time>2011-06-14T08:52:05Z</time>
      </trkpt>
      <trkpt lat="42.85185" lon="0.66807">
        <ele>1907.8737792969</ele>
        <time>2011-06-14T08:52:11Z</time>
      </trkpt>
      <trkpt lat="42.85184" lon="0.66813">
        <ele>1909.3156738281</ele>
        <time>2011-06-14T08:52:16Z</time>
      </trkpt>
      <trkpt lat="42.85181" lon="0.66821">
        <ele>1911.23828125</ele>
        <time>2011-06-14T08:52:23Z</time>
      </trkpt>
      <trkpt lat="42.85178" lon="0.66828">
        <ele>1912.6801757812</ele>
        <time>2011-06-14T08:52:31Z</time>
      </trkpt>
      <trkpt lat="42.85175" lon="0.66837">
        <ele>1913.6413574219</ele>
        <time>2011-06-14T08:52:39Z</time>
      </trkpt>
      <trkpt lat="42.85173" lon="0.66842">
        <ele>1915.0834960938</ele>
        <time>2011-06-14T08:52:43Z</time>
      </trkpt>
      <trkpt lat="42.85172" lon="0.66849">
        <ele>1917.0063476562</ele>
        <time>2011-06-14T08:52:50Z</time>
      </trkpt>
      <trkpt lat="42.8517" lon="0.66854">
        <ele>1917.9675292969</ele>
        <time>2011-06-14T08:52:54Z</time>
      </trkpt>
      <trkpt lat="42.85169" lon="0.66861">
        <ele>1919.4096679688</ele>
        <time>2011-06-14T08:53:00Z</time>
      </trkpt>
      <trkpt lat="42.85167" lon="0.66866">
        <ele>1920.3708496094</ele>
        <time>2011-06-14T08:53:05Z</time>
      </trkpt>
      <trkpt lat="42.85167" lon="0.66872">
        <ele>1920.8515625</ele>
        <time>2011-06-14T08:53:10Z</time>
      </trkpt>
      <trkpt lat="42.85165" lon="0.66878">
        <ele>1921.8127441406</ele>
        <time>2011-06-14T08:53:16Z</time>
      </trkpt>
      <trkpt lat="42.85164" lon="0.66883">
        <ele>1922.7741699219</ele>
        <time>2011-06-14T08:53:20Z</time>
      </trkpt>
      <trkpt lat="42.85162" lon="0.6689">
        <ele>1923.7353515625</ele>
        <time>2011-06-14T08:53:26Z</time>
      </trkpt>
      <trkpt lat="42.8516" lon="0.66897">
        <ele>1925.6579589844</ele>
        <time>2011-06-14T08:53:32Z</time>
      </trkpt>
      <trkpt lat="42.85158" lon="0.66904">
        <ele>1928.0612792969</ele>
        <time>2011-06-14T08:53:38Z</time>
      </trkpt>
      <trkpt lat="42.85155" lon="0.66912">
        <ele>1928.5419921875</ele>
        <time>2011-06-14T08:53:45Z</time>
      </trkpt>
      <trkpt lat="42.85153" lon="0.66917">
        <ele>1929.9838867188</ele>
        <time>2011-06-14T08:53:50Z</time>
      </trkpt>
      <trkpt lat="42.85151" lon="0.66924">
        <ele>1931.42578125</ele>
        <time>2011-06-14T08:53:56Z</time>
      </trkpt>
      <trkpt lat="42.85148" lon="0.66933">
        <ele>1933.8293457031</ele>
        <time>2011-06-14T08:54:03Z</time>
      </trkpt>
      <trkpt lat="42.85146" lon="0.66939">
        <ele>1934.7907714844</ele>
        <time>2011-06-14T08:54:08Z</time>
      </trkpt>
      <trkpt lat="42.85143" lon="0.66948">
        <ele>1935.751953125</ele>
        <time>2011-06-14T08:54:15Z</time>
      </trkpt>
      <trkpt lat="42.85141" lon="0.6696">
        <ele>1937.6745605469</ele>
        <time>2011-06-14T08:54:24Z</time>
      </trkpt>
      <trkpt lat="42.85139" lon="0.66968">
        <ele>1939.1164550781</ele>
        <time>2011-06-14T08:54:30Z</time>
      </trkpt>
      <trkpt lat="42.85139" lon="0.66979">
        <ele>1941.0390625</ele>
        <time>2011-06-14T08:54:37Z</time>
      </trkpt>
      <trkpt lat="42.85138" lon="0.66988">
        <ele>1941.5197753906</ele>
        <time>2011-06-14T08:54:43Z</time>
      </trkpt>
      <trkpt lat="42.85136" lon="0.66999">
        <ele>1942.0004882812</ele>
        <time>2011-06-14T08:54:50Z</time>
      </trkpt>
      <trkpt lat="42.85136" lon="0.67011">
        <ele>1942.9616699219</ele>
        <time>2011-06-14T08:54:57Z</time>
      </trkpt>
      <trkpt lat="42.85135" lon="0.6702">
        <ele>1943.9230957031</ele>
        <time>2011-06-14T08:55:02Z</time>
      </trkpt>
      <trkpt lat="42.85133" lon="0.67033">
        <ele>1943.4423828125</ele>
        <time>2011-06-14T08:55:09Z</time>
      </trkpt>
      <trkpt lat="42.85134" lon="0.67044">
        <ele>1942.9616699219</ele>
        <time>2011-06-14T08:55:15Z</time>
      </trkpt>
      <trkpt lat="42.85136" lon="0.67055">
        <ele>1942.9616699219</ele>
        <time>2011-06-14T08:55:21Z</time>
      </trkpt>
      <trkpt lat="42.85139" lon="0.67066">
        <ele>1943.4423828125</ele>
        <time>2011-06-14T08:55:27Z</time>
      </trkpt>
      <trkpt lat="42.85141" lon="0.67079">
        <ele>1944.8842773438</ele>
        <time>2011-06-14T08:55:34Z</time>
      </trkpt>
      <trkpt lat="42.85143" lon="0.67086">
        <ele>1945.845703125</ele>
        <time>2011-06-14T08:55:38Z</time>
      </trkpt>
      <trkpt lat="42.85143" lon="0.67099">
        <ele>1947.2875976562</ele>
        <time>2011-06-14T08:55:45Z</time>
      </trkpt>
      <trkpt lat="42.85144" lon="0.67107">
        <ele>1948.7297363281</ele>
        <time>2011-06-14T08:55:50Z</time>
      </trkpt>
      <trkpt lat="42.85146" lon="0.67115">
        <ele>1949.2104492188</ele>
        <time>2011-06-14T08:55:55Z</time>
      </trkpt>
      <trkpt lat="42.85148" lon="0.67125">
        <ele>1950.65234375</ele>
        <time>2011-06-14T08:56:01Z</time>
      </trkpt>
      <trkpt lat="42.85149" lon="0.67134">
        <ele>1951.6137695312</ele>
        <time>2011-06-14T08:56:07Z</time>
      </trkpt>
      <trkpt lat="42.85151" lon="0.67145">
        <ele>1952.5749511719</ele>
        <time>2011-06-14T08:56:14Z</time>
      </trkpt>
      <trkpt lat="42.85152" lon="0.67155">
        <ele>1953.0556640625</ele>
        <time>2011-06-14T08:56:20Z</time>
      </trkpt>
      <trkpt lat="42.85154" lon="0.67169">
        <ele>1952.0942382812</ele>
        <time>2011-06-14T08:56:29Z</time>
      </trkpt>
      <trkpt lat="42.85155" lon="0.67181">
        <ele>1953.5363769531</ele>
        <time>2011-06-14T08:56:36Z</time>
      </trkpt>
      <trkpt lat="42.85157" lon="0.67189">
        <ele>1954.4975585938</ele>
        <time>2011-06-14T08:56:41Z</time>
      </trkpt>
      <trkpt lat="42.85159" lon="0.67198">
        <ele>1955.458984375</ele>
        <time>2011-06-14T08:56:46Z</time>
      </trkpt>
      <trkpt lat="42.85162" lon="0.67209">
        <ele>1957.3815917969</ele>
        <time>2011-06-14T08:56:53Z</time>
      </trkpt>
      <trkpt lat="42.85165" lon="0.67217">
        <ele>1958.3427734375</ele>
        <time>2011-06-14T08:56:58Z</time>
      </trkpt>
      <trkpt lat="42.85167" lon="0.67227">
        <ele>1959.7846679688</ele>
        <time>2011-06-14T08:57:04Z</time>
      </trkpt>
      <trkpt lat="42.85169" lon="0.67234">
        <ele>1960.74609375</ele>
        <time>2011-06-14T08:57:09Z</time>
      </trkpt>
      <trkpt lat="42.85171" lon="0.67243">
        <ele>1962.1879882812</ele>
        <time>2011-06-14T08:57:15Z</time>
      </trkpt>
      <trkpt lat="42.85173" lon="0.67251">
        <ele>1963.1494140625</ele>
        <time>2011-06-14T08:57:20Z</time>
      </trkpt>
      <trkpt lat="42.85174" lon="0.67262">
        <ele>1964.1108398438</ele>
        <time>2011-06-14T08:57:26Z</time>
      </trkpt>
      <trkpt lat="42.85176" lon="0.67271">
        <ele>1966.0334472656</ele>
        <time>2011-06-14T08:57:32Z</time>
      </trkpt>
      <trkpt lat="42.85178" lon="0.6728">
        <ele>1966.5141601562</ele>
        <time>2011-06-14T08:57:37Z</time>
      </trkpt>
      <trkpt lat="42.8518" lon="0.6729">
        <ele>1967.9560546875</ele>
        <time>2011-06-14T08:57:43Z</time>
      </trkpt>
      <trkpt lat="42.8518" lon="0.67299">
        <ele>1968.9174804688</ele>
        <time>2011-06-14T08:57:49Z</time>
      </trkpt>
      <trkpt lat="42.85182" lon="0.67308">
        <ele>1969.8786621094</ele>
        <time>2011-06-14T08:57:55Z</time>
      </trkpt>
      <trkpt lat="42.85185" lon="0.67314">
        <ele>1971.8012695312</ele>
        <time>2011-06-14T08:58:00Z</time>
      </trkpt>
      <trkpt lat="42.85186" lon="0.67317">
        <ele>1972.2819824219</ele>
        <time>2011-06-14T08:58:02Z</time>
      </trkpt>
      <trkpt lat="42.85189" lon="0.67322">
        <ele>1973.2434082031</ele>
        <time>2011-06-14T08:58:07Z</time>
      </trkpt>
      <trkpt lat="42.85193" lon="0.6733">
        <ele>1975.646484375</ele>
        <time>2011-06-14T08:58:15Z</time>
      </trkpt>
      <trkpt lat="42.85196" lon="0.67334">
        <ele>1976.6079101562</ele>
        <time>2011-06-14T08:58:20Z</time>
      </trkpt>
      <trkpt lat="42.85199" lon="0.67338">
        <ele>1977.5690917969</ele>
        <time>2011-06-14T08:58:26Z</time>
      </trkpt>
      <trkpt lat="42.85204" lon="0.67342">
        <ele>1978.0498046875</ele>
        <time>2011-06-14T08:58:32Z</time>
      </trkpt>
      <trkpt lat="42.8521" lon="0.67344">
        <ele>1979.4916992188</ele>
        <time>2011-06-14T08:58:40Z</time>
      </trkpt>
      <trkpt lat="42.85212" lon="0.67344">
        <ele>1980.4533691406</ele>
        <time>2011-06-14T08:58:46Z</time>
      </trkpt>
      <trkpt lat="42.85211" lon="0.67344">
        <ele>1981.4145507812</ele>
        <time>2011-06-14T08:59:02Z</time>
      </trkpt>
      <trkpt lat="42.85211" lon="0.67344">
        <ele>1980.9340820312</ele>
        <time>2011-06-14T08:59:06Z</time>
      </trkpt>
      <trkpt lat="42.85208" lon="0.6734">
        <ele>1983.8178710938</ele>
        <time>2011-06-14T09:01:07Z</time>
      </trkpt>
      <trkpt lat="42.85207" lon="0.67339">
        <ele>1983.8178710938</ele>
        <time>2011-06-14T09:01:08Z</time>
      </trkpt>
      <trkpt lat="42.85206" lon="0.67329">
        <ele>1983.3371582031</ele>
        <time>2011-06-14T09:01:14Z</time>
      </trkpt>
      <trkpt lat="42.85206" lon="0.67327">
        <ele>1983.3371582031</ele>
        <time>2011-06-14T09:01:15Z</time>
      </trkpt>
      <trkpt lat="42.85205" lon="0.67318">
        <ele>1984.779296875</ele>
        <time>2011-06-14T09:01:20Z</time>
      </trkpt>
      <trkpt lat="42.85204" lon="0.67304">
        <ele>1986.7016601562</ele>
        <time>2011-06-14T09:01:27Z</time>
      </trkpt>
      <trkpt lat="42.85204" lon="0.67301">
        <ele>1987.1823730469</ele>
        <time>2011-06-14T09:01:29Z</time>
      </trkpt>
      <trkpt lat="42.85204" lon="0.67292">
        <ele>1987.6630859375</ele>
        <time>2011-06-14T09:01:34Z</time>
      </trkpt>
      <trkpt lat="42.85204" lon="0.67291">
        <ele>1987.6630859375</ele>
        <time>2011-06-14T09:01:35Z</time>
      </trkpt>
      <trkpt lat="42.85206" lon="0.67276">
        <ele>1987.6630859375</ele>
        <time>2011-06-14T09:01:44Z</time>
      </trkpt>
      <trkpt lat="42.85208" lon="0.67267">
        <ele>1988.1437988281</ele>
        <time>2011-06-14T09:01:49Z</time>
      </trkpt>
      <trkpt lat="42.85212" lon="0.6725">
        <ele>1987.1823730469</ele>
        <time>2011-06-14T09:01:58Z</time>
      </trkpt>
      <trkpt lat="42.85214" lon="0.67244">
        <ele>1985.7404785156</ele>
        <time>2011-06-14T09:02:02Z</time>
      </trkpt>
      <trkpt lat="42.85216" lon="0.6724">
        <ele>1983.8178710938</ele>
        <time>2011-06-14T09:02:08Z</time>
      </trkpt>
      <trkpt lat="42.85219" lon="0.67235">
        <ele>1983.3371582031</ele>
        <time>2011-06-14T09:02:11Z</time>
      </trkpt>
      <trkpt lat="42.85221" lon="0.67231">
        <ele>1983.8178710938</ele>
        <time>2011-06-14T09:02:14Z</time>
      </trkpt>
      <trkpt lat="42.85226" lon="0.67223">
        <ele>1983.8178710938</ele>
        <time>2011-06-14T09:02:20Z</time>
      </trkpt>
      <trkpt lat="42.85233" lon="0.67218">
        <ele>1982.8564453125</ele>
        <time>2011-06-14T09:02:26Z</time>
      </trkpt>
      <trkpt lat="42.85236" lon="0.67217">
        <ele>1981.8952636719</ele>
        <time>2011-06-14T09:02:29Z</time>
      </trkpt>
      <trkpt lat="42.85246" lon="0.67222">
        <ele>1983.3371582031</ele>
        <time>2011-06-14T09:02:37Z</time>
      </trkpt>
      <trkpt lat="42.85254" lon="0.67232">
        <ele>1983.8178710938</ele>
        <time>2011-06-14T09:02:46Z</time>
      </trkpt>
      <trkpt lat="42.85257" lon="0.67242">
        <ele>1985.259765625</ele>
        <time>2011-06-14T09:02:53Z</time>
      </trkpt>
      <trkpt lat="42.85257" lon="0.67251">
        <ele>1986.2211914062</ele>
        <time>2011-06-14T09:02:59Z</time>
      </trkpt>
      <trkpt lat="42.85256" lon="0.6726">
        <ele>1987.1823730469</ele>
        <time>2011-06-14T09:03:06Z</time>
      </trkpt>
      <trkpt lat="42.85254" lon="0.67268">
        <ele>1987.6630859375</ele>
        <time>2011-06-14T09:03:12Z</time>
      </trkpt>
      <trkpt lat="42.85255" lon="0.67278">
        <ele>1989.1049804688</ele>
        <time>2011-06-14T09:03:19Z</time>
      </trkpt>
      <trkpt lat="42.85255" lon="0.67279">
        <ele>1989.5856933594</ele>
        <time>2011-06-14T09:03:20Z</time>
      </trkpt>
      <trkpt lat="42.85259" lon="0.6729">
        <ele>1990.546875</ele>
        <time>2011-06-14T09:03:28Z</time>
      </trkpt>
      <trkpt lat="42.85262" lon="0.67298">
        <ele>1991.0275878906</ele>
        <time>2011-06-14T09:03:34Z</time>
      </trkpt>
      <trkpt lat="42.85263" lon="0.67309">
        <ele>1991.5083007812</ele>
        <time>2011-06-14T09:03:41Z</time>
      </trkpt>
      <trkpt lat="42.85263" lon="0.67316">
        <ele>1991.9890136719</ele>
        <time>2011-06-14T09:03:46Z</time>
      </trkpt>
      <trkpt lat="42.85262" lon="0.67329">
        <ele>1991.0275878906</ele>
        <time>2011-06-14T09:03:55Z</time>
      </trkpt>
      <trkpt lat="42.85262" lon="0.6733">
        <ele>1991.0275878906</ele>
        <time>2011-06-14T09:04:01Z</time>
      </trkpt>
      <trkpt lat="42.85263" lon="0.67336">
        <ele>1991.5083007812</ele>
        <time>2011-06-14T09:04:13Z</time>
      </trkpt>
      <trkpt lat="42.85263" lon="0.67347">
        <ele>1991.0275878906</ele>
        <time>2011-06-14T09:04:20Z</time>
      </trkpt>
      <trkpt lat="42.85265" lon="0.67354">
        <ele>1990.546875</ele>
        <time>2011-06-14T09:04:25Z</time>
      </trkpt>
      <trkpt lat="42.85272" lon="0.67358">
        <ele>1990.546875</ele>
        <time>2011-06-14T09:04:32Z</time>
      </trkpt>
      <trkpt lat="42.85273" lon="0.67358">
        <ele>1990.546875</ele>
        <time>2011-06-14T09:04:33Z</time>
      </trkpt>
      <trkpt lat="42.85281" lon="0.67362">
        <ele>1991.5083007812</ele>
        <time>2011-06-14T09:04:41Z</time>
      </trkpt>
      <trkpt lat="42.85287" lon="0.67368">
        <ele>1992.4697265625</ele>
        <time>2011-06-14T09:04:48Z</time>
      </trkpt>
      <trkpt lat="42.85289" lon="0.67371">
        <ele>1993.4309082031</ele>
        <time>2011-06-14T09:04:51Z</time>
      </trkpt>
      <trkpt lat="42.8529" lon="0.6738">
        <ele>1993.9116210938</ele>
        <time>2011-06-14T09:04:58Z</time>
      </trkpt>
      <trkpt lat="42.8529" lon="0.67383">
        <ele>1994.3920898438</ele>
        <time>2011-06-14T09:05:04Z</time>
      </trkpt>
      <trkpt lat="42.85291" lon="0.67384">
        <ele>1990.06640625</ele>
        <time>2011-06-14T09:05:17Z</time>
      </trkpt>
      <trkpt lat="42.8529" lon="0.67393">
        <ele>1990.546875</ele>
        <time>2011-06-14T09:05:23Z</time>
      </trkpt>
      <trkpt lat="42.85287" lon="0.67404">
        <ele>1992.9501953125</ele>
        <time>2011-06-14T09:05:30Z</time>
      </trkpt>
      <trkpt lat="42.85282" lon="0.67416">
        <ele>1996.7956542969</ele>
        <time>2011-06-14T09:05:39Z</time>
      </trkpt>
      <trkpt lat="42.8528" lon="0.67422">
        <ele>1998.2375488281</ele>
        <time>2011-06-14T09:05:44Z</time>
      </trkpt>
      <trkpt lat="42.85278" lon="0.67428">
        <ele>2000.1604003906</ele>
        <time>2011-06-14T09:05:49Z</time>
      </trkpt>
      <trkpt lat="42.85273" lon="0.67438">
        <ele>2002.5634765625</ele>
        <time>2011-06-14T09:05:57Z</time>
      </trkpt>
      <trkpt lat="42.85271" lon="0.67447">
        <ele>2004.4860839844</ele>
        <time>2011-06-14T09:06:04Z</time>
      </trkpt>
      <trkpt lat="42.85268" lon="0.67458">
        <ele>2006.4086914062</ele>
        <time>2011-06-14T09:06:12Z</time>
      </trkpt>
      <trkpt lat="42.85265" lon="0.67467">
        <ele>2008.3312988281</ele>
        <time>2011-06-14T09:06:19Z</time>
      </trkpt>
      <trkpt lat="42.85264" lon="0.6747">
        <ele>2009.7731933594</ele>
        <time>2011-06-14T09:06:27Z</time>
      </trkpt>
      <trkpt lat="42.85262" lon="0.67475">
        <ele>2010.25390625</ele>
        <time>2011-06-14T09:06:32Z</time>
      </trkpt>
      <trkpt lat="42.85261" lon="0.67479">
        <ele>2011.2153320312</ele>
        <time>2011-06-14T09:06:36Z</time>
      </trkpt>
      <trkpt lat="42.85258" lon="0.67487">
        <ele>2012.6574707031</ele>
        <time>2011-06-14T09:06:43Z</time>
      </trkpt>
      <trkpt lat="42.85256" lon="0.67494">
        <ele>2014.0993652344</ele>
        <time>2011-06-14T09:06:50Z</time>
      </trkpt>
      <trkpt lat="42.85254" lon="0.67499">
        <ele>2015.5415039062</ele>
        <time>2011-06-14T09:06:55Z</time>
      </trkpt>
      <trkpt lat="42.85252" lon="0.67506">
        <ele>2016.9833984375</ele>
        <time>2011-06-14T09:07:01Z</time>
      </trkpt>
      <trkpt lat="42.85251" lon="0.6751">
        <ele>2016.9833984375</ele>
        <time>2011-06-14T09:07:05Z</time>
      </trkpt>
      <trkpt lat="42.8525" lon="0.67515">
        <ele>2017.9445800781</ele>
        <time>2011-06-14T09:07:17Z</time>
      </trkpt>
      <trkpt lat="42.85249" lon="0.67519">
        <ele>2018.9060058594</ele>
        <time>2011-06-14T09:07:21Z</time>
      </trkpt>
      <trkpt lat="42.85249" lon="0.67525">
        <ele>2020.3479003906</ele>
        <time>2011-06-14T09:07:26Z</time>
      </trkpt>
      <trkpt lat="42.8525" lon="0.67531">
        <ele>2021.7897949219</ele>
        <time>2011-06-14T09:07:32Z</time>
      </trkpt>
      <trkpt lat="42.85251" lon="0.67538">
        <ele>2023.7124023438</ele>
        <time>2011-06-14T09:07:38Z</time>
      </trkpt>
      <trkpt lat="42.8525" lon="0.67544">
        <ele>2025.6350097656</ele>
        <time>2011-06-14T09:07:44Z</time>
      </trkpt>
      <trkpt lat="42.85252" lon="0.67548">
        <ele>2026.5964355469</ele>
        <time>2011-06-14T09:07:49Z</time>
      </trkpt>
      <trkpt lat="42.85256" lon="0.67544">
        <ele>2027.0771484375</ele>
        <time>2011-06-14T09:07:54Z</time>
      </trkpt>
      <trkpt lat="42.85262" lon="0.67538">
        <ele>2028.5192871094</ele>
        <time>2011-06-14T09:08:01Z</time>
      </trkpt>
      <trkpt lat="42.8527" lon="0.67529">
        <ele>2030.4418945312</ele>
        <time>2011-06-14T09:08:11Z</time>
      </trkpt>
      <trkpt lat="42.85279" lon="0.67522">
        <ele>2032.3645019531</ele>
        <time>2011-06-14T09:08:20Z</time>
      </trkpt>
      <trkpt lat="42.85284" lon="0.67515">
        <ele>2032.3645019531</ele>
        <time>2011-06-14T09:08:26Z</time>
      </trkpt>
      <trkpt lat="42.85294" lon="0.67507">
        <ele>2033.3256835938</ele>
        <time>2011-06-14T09:08:35Z</time>
      </trkpt>
      <trkpt lat="42.85301" lon="0.67498">
        <ele>2034.7678222656</ele>
        <time>2011-06-14T09:08:42Z</time>
      </trkpt>
      <trkpt lat="42.85308" lon="0.67491">
        <ele>2033.8063964844</ele>
        <time>2011-06-14T09:08:50Z</time>
      </trkpt>
      <trkpt lat="42.85312" lon="0.67487">
        <ele>2032.8449707031</ele>
        <time>2011-06-14T09:08:57Z</time>
      </trkpt>
      <trkpt lat="42.85313" lon="0.67486">
        <ele>2031.4030761719</ele>
        <time>2011-06-14T09:09:04Z</time>
      </trkpt>
      <trkpt lat="42.85318" lon="0.6748">
        <ele>2029.48046875</ele>
        <time>2011-06-14T09:09:23Z</time>
      </trkpt>
      <trkpt lat="42.85321" lon="0.67475">
        <ele>2029.48046875</ele>
        <time>2011-06-14T09:09:26Z</time>
      </trkpt>
      <trkpt lat="42.8533" lon="0.67468">
        <ele>2030.4418945312</ele>
        <time>2011-06-14T09:09:34Z</time>
      </trkpt>
      <trkpt lat="42.85337" lon="0.67459">
        <ele>2030.4418945312</ele>
        <time>2011-06-14T09:09:42Z</time>
      </trkpt>
      <trkpt lat="42.85344" lon="0.67447">
        <ele>2028.9997558594</ele>
        <time>2011-06-14T09:09:50Z</time>
      </trkpt>
      <trkpt lat="42.8535" lon="0.6744">
        <ele>2029.9611816406</ele>
        <time>2011-06-14T09:09:56Z</time>
      </trkpt>
      <trkpt lat="42.85358" lon="0.67434">
        <ele>2031.4030761719</ele>
        <time>2011-06-14T09:10:03Z</time>
      </trkpt>
      <trkpt lat="42.85365" lon="0.67429">
        <ele>2033.3256835938</ele>
        <time>2011-06-14T09:10:09Z</time>
      </trkpt>
      <trkpt lat="42.85372" lon="0.67424">
        <ele>2035.2482910156</ele>
        <time>2011-06-14T09:10:16Z</time>
      </trkpt>
      <trkpt lat="42.85379" lon="0.67418">
        <ele>2034.7678222656</ele>
        <time>2011-06-14T09:10:22Z</time>
      </trkpt>
      <trkpt lat="42.85385" lon="0.67414">
        <ele>2034.287109375</ele>
        <time>2011-06-14T09:10:27Z</time>
      </trkpt>
      <trkpt lat="42.85392" lon="0.67408">
        <ele>2033.8063964844</ele>
        <time>2011-06-14T09:10:33Z</time>
      </trkpt>
      <trkpt lat="42.85392" lon="0.67408">
        <ele>2033.8063964844</ele>
        <time>2011-06-14T09:10:34Z</time>
      </trkpt>
      <trkpt lat="42.85398" lon="0.67402">
        <ele>2032.8449707031</ele>
        <time>2011-06-14T09:10:40Z</time>
      </trkpt>
      <trkpt lat="42.85408" lon="0.67388">
        <ele>2033.3256835938</ele>
        <time>2011-06-14T09:10:50Z</time>
      </trkpt>
      <trkpt lat="42.85416" lon="0.67378">
        <ele>2031.8837890625</ele>
        <time>2011-06-14T09:10:57Z</time>
      </trkpt>
      <trkpt lat="42.85424" lon="0.67372">
        <ele>2034.287109375</ele>
        <time>2011-06-14T09:11:04Z</time>
      </trkpt>
      <trkpt lat="42.85429" lon="0.67364">
        <ele>2036.2097167969</ele>
        <time>2011-06-14T09:11:10Z</time>
      </trkpt>
      <trkpt lat="42.85436" lon="0.67354">
        <ele>2038.1323242188</ele>
        <time>2011-06-14T09:11:17Z</time>
      </trkpt>
      <trkpt lat="42.85442" lon="0.67348">
        <ele>2038.1323242188</ele>
        <time>2011-06-14T09:11:23Z</time>
      </trkpt>
      <trkpt lat="42.85446" lon="0.67341">
        <ele>2039.0935058594</ele>
        <time>2011-06-14T09:11:28Z</time>
      </trkpt>
      <trkpt lat="42.85452" lon="0.67335">
        <ele>2040.0549316406</ele>
        <time>2011-06-14T09:11:34Z</time>
      </trkpt>
      <trkpt lat="42.85453" lon="0.67333">
        <ele>2040.0549316406</ele>
        <time>2011-06-14T09:11:38Z</time>
      </trkpt>
      <trkpt lat="42.85458" lon="0.67327">
        <ele>2041.0161132812</ele>
        <time>2011-06-14T09:11:43Z</time>
      </trkpt>
      <trkpt lat="42.85459" lon="0.67327">
        <ele>2040.5354003906</ele>
        <time>2011-06-14T09:11:44Z</time>
      </trkpt>
      <trkpt lat="42.85468" lon="0.6732">
        <ele>2041.9775390625</ele>
        <time>2011-06-14T09:11:52Z</time>
      </trkpt>
      <trkpt lat="42.85472" lon="0.67314">
        <ele>2042.4582519531</ele>
        <time>2011-06-14T09:11:57Z</time>
      </trkpt>
      <trkpt lat="42.85479" lon="0.67307">
        <ele>2043.4194335938</ele>
        <time>2011-06-14T09:12:04Z</time>
      </trkpt>
      <trkpt lat="42.85486" lon="0.67303">
        <ele>2043.4194335938</ele>
        <time>2011-06-14T09:12:10Z</time>
      </trkpt>
      <trkpt lat="42.85491" lon="0.67297">
        <ele>2045.3422851562</ele>
        <time>2011-06-14T09:12:16Z</time>
      </trkpt>
      <trkpt lat="42.85498" lon="0.67291">
        <ele>2045.8229980469</ele>
        <time>2011-06-14T09:12:23Z</time>
      </trkpt>
      <trkpt lat="42.85499" lon="0.6729">
        <ele>2045.8229980469</ele>
        <time>2011-06-14T09:12:24Z</time>
      </trkpt>
      <trkpt lat="42.85503" lon="0.67287">
        <ele>2044.8615722656</ele>
        <time>2011-06-14T09:12:32Z</time>
      </trkpt>
      <trkpt lat="42.85506" lon="0.67285">
        <ele>2044.8615722656</ele>
        <time>2011-06-14T09:12:36Z</time>
      </trkpt>
      <trkpt lat="42.85511" lon="0.67282">
        <ele>2045.3422851562</ele>
        <time>2011-06-14T09:12:41Z</time>
      </trkpt>
      <trkpt lat="42.85513" lon="0.6728">
        <ele>2045.3422851562</ele>
        <time>2011-06-14T09:12:43Z</time>
      </trkpt>
      <trkpt lat="42.85519" lon="0.67273">
        <ele>2046.7841796875</ele>
        <time>2011-06-14T09:12:50Z</time>
      </trkpt>
      <trkpt lat="42.85522" lon="0.6727">
        <ele>2047.7456054688</ele>
        <time>2011-06-14T09:12:54Z</time>
      </trkpt>
      <trkpt lat="42.85524" lon="0.67269">
        <ele>2048.2260742188</ele>
        <time>2011-06-14T09:12:56Z</time>
      </trkpt>
      <trkpt lat="42.85529" lon="0.67264">
        <ele>2049.6682128906</ele>
        <time>2011-06-14T09:13:03Z</time>
      </trkpt>
      <trkpt lat="42.8553" lon="0.67256">
        <ele>2052.0712890625</ele>
        <time>2011-06-14T09:13:09Z</time>
      </trkpt>
      <trkpt lat="42.85534" lon="0.67251">
        <ele>2053.994140625</ele>
        <time>2011-06-14T09:13:15Z</time>
      </trkpt>
      <trkpt lat="42.85537" lon="0.67249">
        <ele>2054.474609375</ele>
        <time>2011-06-14T09:13:19Z</time>
      </trkpt>
      <trkpt lat="42.85539" lon="0.67244">
        <ele>2055.9165039062</ele>
        <time>2011-06-14T09:13:24Z</time>
      </trkpt>
      <trkpt lat="42.85542" lon="0.67237">
        <ele>2057.8393554688</ele>
        <time>2011-06-14T09:13:30Z</time>
      </trkpt>
      <trkpt lat="42.85544" lon="0.67231">
        <ele>2059.76171875</ele>
        <time>2011-06-14T09:13:36Z</time>
      </trkpt>
      <trkpt lat="42.85547" lon="0.67227">
        <ele>2060.7233886719</ele>
        <time>2011-06-14T09:13:41Z</time>
      </trkpt>
      <trkpt lat="42.85551" lon="0.67221">
        <ele>2062.6459960938</ele>
        <time>2011-06-14T09:13:48Z</time>
      </trkpt>
      <trkpt lat="42.85554" lon="0.67216">
        <ele>2064.5686035156</ele>
        <time>2011-06-14T09:13:53Z</time>
      </trkpt>
      <trkpt lat="42.85554" lon="0.67216">
        <ele>2065.0493164062</ele>
        <time>2011-06-14T09:14:00Z</time>
      </trkpt>
      <trkpt lat="42.85558" lon="0.67214">
        <ele>2066.0104980469</ele>
        <time>2011-06-14T09:14:15Z</time>
      </trkpt>
      <trkpt lat="42.85563" lon="0.67214">
        <ele>2066.4912109375</ele>
        <time>2011-06-14T09:14:20Z</time>
      </trkpt>
      <trkpt lat="42.85565" lon="0.67219">
        <ele>2066.4912109375</ele>
        <time>2011-06-14T09:14:26Z</time>
      </trkpt>
      <trkpt lat="42.85567" lon="0.67222">
        <ele>2067.9331054688</ele>
        <time>2011-06-14T09:14:31Z</time>
      </trkpt>
      <trkpt lat="42.85571" lon="0.67224">
        <ele>2068.89453125</ele>
        <time>2011-06-14T09:14:36Z</time>
      </trkpt>
      <trkpt lat="42.85576" lon="0.67227">
        <ele>2069.8557128906</ele>
        <time>2011-06-14T09:14:42Z</time>
      </trkpt>
      <trkpt lat="42.8558" lon="0.67232">
        <ele>2070.8171386719</ele>
        <time>2011-06-14T09:14:49Z</time>
      </trkpt>
      <trkpt lat="42.85585" lon="0.67238">
        <ele>2070.8171386719</ele>
        <time>2011-06-14T09:14:56Z</time>
      </trkpt>
      <trkpt lat="42.85588" lon="0.67241">
        <ele>2072.7397460938</ele>
        <time>2011-06-14T09:15:03Z</time>
      </trkpt>
      <trkpt lat="42.8559" lon="0.67237">
        <ele>2075.1428222656</ele>
        <time>2011-06-14T09:15:09Z</time>
      </trkpt>
      <trkpt lat="42.85591" lon="0.67231">
        <ele>2078.0270996094</ele>
        <time>2011-06-14T09:15:15Z</time>
      </trkpt>
      <trkpt lat="42.85594" lon="0.67225">
        <ele>2080.4304199219</ele>
        <time>2011-06-14T09:15:21Z</time>
      </trkpt>
      <trkpt lat="42.85595" lon="0.67222">
        <ele>2080.4304199219</ele>
        <time>2011-06-14T09:15:27Z</time>
      </trkpt>
      <trkpt lat="42.85598" lon="0.67216">
        <ele>2081.8723144531</ele>
        <time>2011-06-14T09:15:32Z</time>
      </trkpt>
      <trkpt lat="42.85599" lon="0.67212">
        <ele>2083.3142089844</ele>
        <time>2011-06-14T09:15:36Z</time>
      </trkpt>
      <trkpt lat="42.85601" lon="0.67207">
        <ele>2084.2756347656</ele>
        <time>2011-06-14T09:15:41Z</time>
      </trkpt>
      <trkpt lat="42.85602" lon="0.67201">
        <ele>2085.7175292969</ele>
        <time>2011-06-14T09:15:47Z</time>
      </trkpt>
      <trkpt lat="42.85602" lon="0.67197">
        <ele>2087.1594238281</ele>
        <time>2011-06-14T09:15:52Z</time>
      </trkpt>
      <trkpt lat="42.85601" lon="0.6719">
        <ele>2088.6015625</ele>
        <time>2011-06-14T09:15:59Z</time>
      </trkpt>
      <trkpt lat="42.85599" lon="0.67184">
        <ele>2089.08203125</ele>
        <time>2011-06-14T09:16:05Z</time>
      </trkpt>
      <trkpt lat="42.85597" lon="0.67177">
        <ele>2090.5239257812</ele>
        <time>2011-06-14T09:16:11Z</time>
      </trkpt>
      <trkpt lat="42.85596" lon="0.67173">
        <ele>2091.4853515625</ele>
        <time>2011-06-14T09:16:16Z</time>
      </trkpt>
      <trkpt lat="42.85595" lon="0.67172">
        <ele>2093.408203125</ele>
        <time>2011-06-14T09:16:26Z</time>
      </trkpt>
      <trkpt lat="42.85595" lon="0.67172">
        <ele>2094.3693847656</ele>
        <time>2011-06-14T09:16:36Z</time>
      </trkpt>
      <trkpt lat="42.85594" lon="0.67172">
        <ele>2094.8500976562</ele>
        <time>2011-06-14T09:16:50Z</time>
      </trkpt>
      <trkpt lat="42.85594" lon="0.67167">
        <ele>2095.3308105469</ele>
        <time>2011-06-14T09:16:56Z</time>
      </trkpt>
      <trkpt lat="42.85593" lon="0.6716">
        <ele>2096.2922363281</ele>
        <time>2011-06-14T09:17:03Z</time>
      </trkpt>
      <trkpt lat="42.85591" lon="0.67153">
        <ele>2098.6953125</ele>
        <time>2011-06-14T09:17:10Z</time>
      </trkpt>
      <trkpt lat="42.85589" lon="0.67146">
        <ele>2102.0598144531</ele>
        <time>2011-06-14T09:17:18Z</time>
      </trkpt>
      <trkpt lat="42.85589" lon="0.67139">
        <ele>2103.9826660156</ele>
        <time>2011-06-14T09:17:24Z</time>
      </trkpt>
      <trkpt lat="42.8559" lon="0.67133">
        <ele>2106.3857421875</ele>
        <time>2011-06-14T09:17:31Z</time>
      </trkpt>
      <trkpt lat="42.85592" lon="0.67127">
        <ele>2106.8664550781</ele>
        <time>2011-06-14T09:17:37Z</time>
      </trkpt>
      <trkpt lat="42.85594" lon="0.67122">
        <ele>2107.8278808594</ele>
        <time>2011-06-14T09:17:43Z</time>
      </trkpt>
      <trkpt lat="42.85593" lon="0.67118">
        <ele>2107.8278808594</ele>
        <time>2011-06-14T09:17:47Z</time>
      </trkpt>
      <trkpt lat="42.85592" lon="0.67112">
        <ele>2108.30859375</ele>
        <time>2011-06-14T09:17:53Z</time>
      </trkpt>
      <trkpt lat="42.85595" lon="0.67107">
        <ele>2109.2700195312</ele>
        <time>2011-06-14T09:18:00Z</time>
      </trkpt>
      <trkpt lat="42.85596" lon="0.67103">
        <ele>2109.7504882812</ele>
        <time>2011-06-14T09:18:05Z</time>
      </trkpt>
      <trkpt lat="42.85599" lon="0.67099">
        <ele>2111.1926269531</ele>
        <time>2011-06-14T09:18:10Z</time>
      </trkpt>
      <trkpt lat="42.856" lon="0.67095">
        <ele>2112.1538085938</ele>
        <time>2011-06-14T09:18:15Z</time>
      </trkpt>
      <trkpt lat="42.856" lon="0.67094">
        <ele>2112.6345214844</ele>
        <time>2011-06-14T09:18:22Z</time>
      </trkpt>
      <trkpt lat="42.85596" lon="0.67094">
        <ele>2112.1538085938</ele>
        <time>2011-06-14T09:18:27Z</time>
      </trkpt>
      <trkpt lat="42.85591" lon="0.67094">
        <ele>2112.6345214844</ele>
        <time>2011-06-14T09:18:34Z</time>
      </trkpt>
      <trkpt lat="42.85588" lon="0.67094">
        <ele>2113.595703125</ele>
        <time>2011-06-14T09:18:53Z</time>
      </trkpt>
      <trkpt lat="42.85582" lon="0.67091">
        <ele>2115.5185546875</ele>
        <time>2011-06-14T09:19:00Z</time>
      </trkpt>
      <trkpt lat="42.85577" lon="0.67089">
        <ele>2116.9604492188</ele>
        <time>2011-06-14T09:19:07Z</time>
      </trkpt>
      <trkpt lat="42.85575" lon="0.67089">
        <ele>2117.4409179688</ele>
        <time>2011-06-14T09:19:14Z</time>
      </trkpt>
      <trkpt lat="42.85572" lon="0.67088">
        <ele>2118.40234375</ele>
        <time>2011-06-14T09:19:24Z</time>
      </trkpt>
      <trkpt lat="42.85567" lon="0.67085">
        <ele>2119.8442382812</ele>
        <time>2011-06-14T09:19:30Z</time>
      </trkpt>
      <trkpt lat="42.85559" lon="0.67081">
        <ele>2121.7668457031</ele>
        <time>2011-06-14T09:19:38Z</time>
      </trkpt>
      <trkpt lat="42.85555" lon="0.67078">
        <ele>2123.208984375</ele>
        <time>2011-06-14T09:19:44Z</time>
      </trkpt>
      <trkpt lat="42.85551" lon="0.67074">
        <ele>2125.1315917969</ele>
        <time>2011-06-14T09:19:50Z</time>
      </trkpt>
      <trkpt lat="42.85548" lon="0.67071">
        <ele>2126.5737304688</ele>
        <time>2011-06-14T09:19:56Z</time>
      </trkpt>
      <trkpt lat="42.85545" lon="0.67067">
        <ele>2128.015625</ele>
        <time>2011-06-14T09:20:02Z</time>
      </trkpt>
      <trkpt lat="42.85542" lon="0.67063">
        <ele>2128.9768066406</ele>
        <time>2011-06-14T09:20:09Z</time>
      </trkpt>
      <trkpt lat="42.85537" lon="0.6706">
        <ele>2128.9768066406</ele>
        <time>2011-06-14T09:20:16Z</time>
      </trkpt>
      <trkpt lat="42.85534" lon="0.67058">
        <ele>2129.9382324219</ele>
        <time>2011-06-14T09:20:21Z</time>
      </trkpt>
      <trkpt lat="42.85528" lon="0.67053">
        <ele>2130.4189453125</ele>
        <time>2011-06-14T09:20:28Z</time>
      </trkpt>
      <trkpt lat="42.85522" lon="0.67049">
        <ele>2131.8608398438</ele>
        <time>2011-06-14T09:20:35Z</time>
      </trkpt>
      <trkpt lat="42.85518" lon="0.67047">
        <ele>2134.2641601562</ele>
        <time>2011-06-14T09:20:42Z</time>
      </trkpt>
      <trkpt lat="42.85516" lon="0.67046">
        <ele>2134.7448730469</ele>
        <time>2011-06-14T09:20:50Z</time>
      </trkpt>
      <trkpt lat="42.85517" lon="0.67047">
        <ele>2134.2641601562</ele>
        <time>2011-06-14T09:20:56Z</time>
      </trkpt>
      <trkpt lat="42.85522" lon="0.6705">
        <ele>2131.8608398438</ele>
        <time>2011-06-14T09:21:01Z</time>
      </trkpt>
      <trkpt lat="42.8553" lon="0.67055">
        <ele>2129.4575195312</ele>
        <time>2011-06-14T09:21:07Z</time>
      </trkpt>
      <trkpt lat="42.85538" lon="0.67061">
        <ele>2128.015625</ele>
        <time>2011-06-14T09:21:14Z</time>
      </trkpt>
      <trkpt lat="42.85545" lon="0.67068">
        <ele>2126.0930175781</ele>
        <time>2011-06-14T09:21:21Z</time>
      </trkpt>
      <trkpt lat="42.85549" lon="0.67073">
        <ele>2123.689453125</ele>
        <time>2011-06-14T09:21:27Z</time>
      </trkpt>
      <trkpt lat="42.85551" lon="0.67077">
        <ele>2121.2861328125</ele>
        <time>2011-06-14T09:21:37Z</time>
      </trkpt>
      <trkpt lat="42.85561" lon="0.67084">
        <ele>2117.9216308594</ele>
        <time>2011-06-14T09:21:43Z</time>
      </trkpt>
      <trkpt lat="42.85569" lon="0.67088">
        <ele>2116.4797363281</ele>
        <time>2011-06-14T09:21:48Z</time>
      </trkpt>
      <trkpt lat="42.85577" lon="0.6709">
        <ele>2113.595703125</ele>
        <time>2011-06-14T09:21:54Z</time>
      </trkpt>
      <trkpt lat="42.85583" lon="0.67093">
        <ele>2112.1538085938</ele>
        <time>2011-06-14T09:21:58Z</time>
      </trkpt>
      <trkpt lat="42.85593" lon="0.67097">
        <ele>2110.2312011719</ele>
        <time>2011-06-14T09:22:05Z</time>
      </trkpt>
      <trkpt lat="42.85603" lon="0.67098">
        <ele>2109.7504882812</ele>
        <time>2011-06-14T09:22:14Z</time>
      </trkpt>
      <trkpt lat="42.85606" lon="0.67106">
        <ele>2110.7119140625</ele>
        <time>2011-06-14T09:22:20Z</time>
      </trkpt>
      <trkpt lat="42.8561" lon="0.67115">
        <ele>2111.1926269531</ele>
        <time>2011-06-14T09:22:27Z</time>
      </trkpt>
      <trkpt lat="42.85611" lon="0.67117">
        <ele>2111.6733398438</ele>
        <time>2011-06-14T09:22:29Z</time>
      </trkpt>
      <trkpt lat="42.85612" lon="0.67124">
        <ele>2111.1926269531</ele>
        <time>2011-06-14T09:22:36Z</time>
      </trkpt>
      <trkpt lat="42.85616" lon="0.67133">
        <ele>2111.1926269531</ele>
        <time>2011-06-14T09:22:43Z</time>
      </trkpt>
      <trkpt lat="42.85621" lon="0.67145">
        <ele>2110.7119140625</ele>
        <time>2011-06-14T09:22:51Z</time>
      </trkpt>
      <trkpt lat="42.85625" lon="0.67158">
        <ele>2110.2312011719</ele>
        <time>2011-06-14T09:22:59Z</time>
      </trkpt>
      <trkpt lat="42.85628" lon="0.67169">
        <ele>2109.7504882812</ele>
        <time>2011-06-14T09:23:05Z</time>
      </trkpt>
      <trkpt lat="42.8563" lon="0.67181">
        <ele>2108.7893066406</ele>
        <time>2011-06-14T09:23:12Z</time>
      </trkpt>
      <trkpt lat="42.85631" lon="0.67189">
        <ele>2107.8278808594</ele>
        <time>2011-06-14T09:23:18Z</time>
      </trkpt>
      <trkpt lat="42.85632" lon="0.67194">
        <ele>2107.3471679688</ele>
        <time>2011-06-14T09:23:25Z</time>
      </trkpt>
      <trkpt lat="42.85634" lon="0.67204">
        <ele>2105.4245605469</ele>
        <time>2011-06-14T09:23:31Z</time>
      </trkpt>
      <trkpt lat="42.85636" lon="0.67213">
        <ele>2105.4245605469</ele>
        <time>2011-06-14T09:23:37Z</time>
      </trkpt>
      <trkpt lat="42.85637" lon="0.6722">
        <ele>2105.4245605469</ele>
        <time>2011-06-14T09:23:41Z</time>
      </trkpt>
      <trkpt lat="42.85641" lon="0.67233">
        <ele>2105.4245605469</ele>
        <time>2011-06-14T09:23:48Z</time>
      </trkpt>
      <trkpt lat="42.85644" lon="0.67247">
        <ele>2105.9050292969</ele>
        <time>2011-06-14T09:23:55Z</time>
      </trkpt>
      <trkpt lat="42.85646" lon="0.6726">
        <ele>2106.3857421875</ele>
        <time>2011-06-14T09:24:02Z</time>
      </trkpt>
      <trkpt lat="42.85648" lon="0.67273">
        <ele>2106.3857421875</ele>
        <time>2011-06-14T09:24:09Z</time>
      </trkpt>
      <trkpt lat="42.85648" lon="0.67275">
        <ele>2105.9050292969</ele>
        <time>2011-06-14T09:24:12Z</time>
      </trkpt>
      <trkpt lat="42.85649" lon="0.6729">
        <ele>2105.4245605469</ele>
        <time>2011-06-14T09:24:21Z</time>
      </trkpt>
      <trkpt lat="42.85649" lon="0.67293">
        <ele>2105.9050292969</ele>
        <time>2011-06-14T09:24:28Z</time>
      </trkpt>
      <trkpt lat="42.85649" lon="0.67295">
        <ele>2105.4245605469</ele>
        <time>2011-06-14T09:24:36Z</time>
      </trkpt>
      <trkpt lat="42.85647" lon="0.67302">
        <ele>2104.4631347656</ele>
        <time>2011-06-14T09:24:44Z</time>
      </trkpt>
      <trkpt lat="42.85643" lon="0.67308">
        <ele>2103.501953125</ele>
        <time>2011-06-14T09:24:51Z</time>
      </trkpt>
      <trkpt lat="42.85644" lon="0.67308">
        <ele>2102.0598144531</ele>
        <time>2011-06-14T09:25:04Z</time>
      </trkpt>
      <trkpt lat="42.85643" lon="0.67308">
        <ele>2101.5793457031</ele>
        <time>2011-06-14T09:25:17Z</time>
      </trkpt>
      <trkpt lat="42.85641" lon="0.67312">
        <ele>2101.5793457031</ele>
        <time>2011-06-14T09:25:20Z</time>
      </trkpt>
      <trkpt lat="42.85635" lon="0.67328">
        <ele>2100.6179199219</ele>
        <time>2011-06-14T09:25:30Z</time>
      </trkpt>
      <trkpt lat="42.85632" lon="0.6734">
        <ele>2101.5793457031</ele>
        <time>2011-06-14T09:25:37Z</time>
      </trkpt>
      <trkpt lat="42.85631" lon="0.67344">
        <ele>2101.0986328125</ele>
        <time>2011-06-14T09:25:44Z</time>
      </trkpt>
      <trkpt lat="42.85627" lon="0.67355">
        <ele>2100.1374511719</ele>
        <time>2011-06-14T09:25:51Z</time>
      </trkpt>
      <trkpt lat="42.85622" lon="0.67373">
        <ele>2099.1760253906</ele>
        <time>2011-06-14T09:26:01Z</time>
      </trkpt>
      <trkpt lat="42.85618" lon="0.67388">
        <ele>2099.6567382812</ele>
        <time>2011-06-14T09:26:09Z</time>
      </trkpt>
      <trkpt lat="42.85614" lon="0.67403">
        <ele>2101.5793457031</ele>
        <time>2011-06-14T09:26:18Z</time>
      </trkpt>
      <trkpt lat="42.85612" lon="0.67415">
        <ele>2103.0212402344</ele>
        <time>2011-06-14T09:26:25Z</time>
      </trkpt>
      <trkpt lat="42.8561" lon="0.67425">
        <ele>2104.9438476562</ele>
        <time>2011-06-14T09:26:32Z</time>
      </trkpt>
      <trkpt lat="42.85607" lon="0.67436">
        <ele>2105.4245605469</ele>
        <time>2011-06-14T09:26:39Z</time>
      </trkpt>
      <trkpt lat="42.85604" lon="0.6745">
        <ele>2106.3857421875</ele>
        <time>2011-06-14T09:26:48Z</time>
      </trkpt>
      <trkpt lat="42.85603" lon="0.67459">
        <ele>2107.3471679688</ele>
        <time>2011-06-14T09:26:54Z</time>
      </trkpt>
      <trkpt lat="42.856" lon="0.6747">
        <ele>2108.7893066406</ele>
        <time>2011-06-14T09:27:01Z</time>
      </trkpt>
      <trkpt lat="42.85597" lon="0.67484">
        <ele>2110.2312011719</ele>
        <time>2011-06-14T09:27:12Z</time>
      </trkpt>
      <trkpt lat="42.85596" lon="0.67492">
        <ele>2110.7119140625</ele>
        <time>2011-06-14T09:27:19Z</time>
      </trkpt>
      <trkpt lat="42.85595" lon="0.67497">
        <ele>2111.1926269531</ele>
        <time>2011-06-14T09:27:24Z</time>
      </trkpt>
      <trkpt lat="42.85592" lon="0.67508">
        <ele>2111.1926269531</ele>
        <time>2011-06-14T09:27:31Z</time>
      </trkpt>
      <trkpt lat="42.8559" lon="0.67517">
        <ele>2111.6733398438</ele>
        <time>2011-06-14T09:27:38Z</time>
      </trkpt>
      <trkpt lat="42.8559" lon="0.67519">
        <ele>2112.1538085938</ele>
        <time>2011-06-14T09:27:39Z</time>
      </trkpt>
      <trkpt lat="42.85589" lon="0.67525">
        <ele>2113.115234375</ele>
        <time>2011-06-14T09:27:45Z</time>
      </trkpt>
      <trkpt lat="42.85588" lon="0.67533">
        <ele>2114.5571289062</ele>
        <time>2011-06-14T09:27:51Z</time>
      </trkpt>
      <trkpt lat="42.85585" lon="0.67547">
        <ele>2115.9990234375</ele>
        <time>2011-06-14T09:28:01Z</time>
      </trkpt>
      <trkpt lat="42.85582" lon="0.67558">
        <ele>2117.9216308594</ele>
        <time>2011-06-14T09:28:09Z</time>
      </trkpt>
      <trkpt lat="42.8558" lon="0.67569">
        <ele>2120.3249511719</ele>
        <time>2011-06-14T09:28:18Z</time>
      </trkpt>
      <trkpt lat="42.85579" lon="0.67576">
        <ele>2120.8056640625</ele>
        <time>2011-06-14T09:28:25Z</time>
      </trkpt>
      <trkpt lat="42.85576" lon="0.67582">
        <ele>2121.2861328125</ele>
        <time>2011-06-14T09:28:31Z</time>
      </trkpt>
      <trkpt lat="42.85573" lon="0.67591">
        <ele>2121.7668457031</ele>
        <time>2011-06-14T09:28:38Z</time>
      </trkpt>
      <trkpt lat="42.85572" lon="0.67599">
        <ele>2122.7282714844</ele>
        <time>2011-06-14T09:28:44Z</time>
      </trkpt>
      <trkpt lat="42.85571" lon="0.67606">
        <ele>2124.1704101562</ele>
        <time>2011-06-14T09:28:50Z</time>
      </trkpt>
      <trkpt lat="42.85569" lon="0.67615">
        <ele>2125.6123046875</ele>
        <time>2011-06-14T09:28:57Z</time>
      </trkpt>
      <trkpt lat="42.85567" lon="0.6762">
        <ele>2127.0544433594</ele>
        <time>2011-06-14T09:29:03Z</time>
      </trkpt>
      <trkpt lat="42.85565" lon="0.67628">
        <ele>2128.9768066406</ele>
        <time>2011-06-14T09:29:10Z</time>
      </trkpt>
      <trkpt lat="42.85565" lon="0.67635">
        <ele>2130.8996582031</ele>
        <time>2011-06-14T09:29:17Z</time>
      </trkpt>
      <trkpt lat="42.85564" lon="0.67642">
        <ele>2132.8220214844</ele>
        <time>2011-06-14T09:29:24Z</time>
      </trkpt>
      <trkpt lat="42.85564" lon="0.67647">
        <ele>2134.7448730469</ele>
        <time>2011-06-14T09:29:30Z</time>
      </trkpt>
      <trkpt lat="42.85563" lon="0.67648">
        <ele>2135.2253417969</ele>
        <time>2011-06-14T09:29:35Z</time>
      </trkpt>
      <trkpt lat="42.85561" lon="0.67653">
        <ele>2136.1867675781</ele>
        <time>2011-06-14T09:29:43Z</time>
      </trkpt>
      <trkpt lat="42.85559" lon="0.67656">
        <ele>2137.6286621094</ele>
        <time>2011-06-14T09:29:48Z</time>
      </trkpt>
      <trkpt lat="42.85558" lon="0.67661">
        <ele>2139.5512695312</ele>
        <time>2011-06-14T09:29:54Z</time>
      </trkpt>
      <trkpt lat="42.85556" lon="0.67665">
        <ele>2141.4741210938</ele>
        <time>2011-06-14T09:30:02Z</time>
      </trkpt>
      <trkpt lat="42.85555" lon="0.67669">
        <ele>2143.3967285156</ele>
        <time>2011-06-14T09:30:09Z</time>
      </trkpt>
      <trkpt lat="42.85553" lon="0.67676">
        <ele>2145.8000488281</ele>
        <time>2011-06-14T09:30:17Z</time>
      </trkpt>
      <trkpt lat="42.85551" lon="0.67681">
        <ele>2146.7612304688</ele>
        <time>2011-06-14T09:30:23Z</time>
      </trkpt>
      <trkpt lat="42.85549" lon="0.67683">
        <ele>2147.2419433594</ele>
        <time>2011-06-14T09:30:28Z</time>
      </trkpt>
      <trkpt lat="42.85548" lon="0.67687">
        <ele>2147.72265625</ele>
        <time>2011-06-14T09:30:33Z</time>
      </trkpt>
      <trkpt lat="42.85546" lon="0.67694">
        <ele>2148.6838378906</ele>
        <time>2011-06-14T09:30:41Z</time>
      </trkpt>
      <trkpt lat="42.85546" lon="0.67696">
        <ele>2149.1645507812</ele>
        <time>2011-06-14T09:30:49Z</time>
      </trkpt>
      <trkpt lat="42.85545" lon="0.67701">
        <ele>2150.6064453125</ele>
        <time>2011-06-14T09:30:56Z</time>
      </trkpt>
      <trkpt lat="42.85545" lon="0.67705">
        <ele>2152.0483398438</ele>
        <time>2011-06-14T09:31:01Z</time>
      </trkpt>
      <trkpt lat="42.85544" lon="0.67707">
        <ele>2153.009765625</ele>
        <time>2011-06-14T09:31:07Z</time>
      </trkpt>
      <trkpt lat="42.85543" lon="0.6771">
        <ele>2154.9323730469</ele>
        <time>2011-06-14T09:31:13Z</time>
      </trkpt>
      <trkpt lat="42.85542" lon="0.67714">
        <ele>2155.8935546875</ele>
        <time>2011-06-14T09:31:20Z</time>
      </trkpt>
      <trkpt lat="42.85542" lon="0.67719">
        <ele>2157.3359375</ele>
        <time>2011-06-14T09:31:27Z</time>
      </trkpt>
      <trkpt lat="42.8554" lon="0.67725">
        <ele>2158.7778320312</ele>
        <time>2011-06-14T09:31:34Z</time>
      </trkpt>
      <trkpt lat="42.8554" lon="0.67728">
        <ele>2160.2197265625</ele>
        <time>2011-06-14T09:31:39Z</time>
      </trkpt>
      <trkpt lat="42.8554" lon="0.67733">
        <ele>2161.1811523438</ele>
        <time>2011-06-14T09:31:44Z</time>
      </trkpt>
      <trkpt lat="42.85539" lon="0.6774">
        <ele>2163.1037597656</ele>
        <time>2011-06-14T09:31:51Z</time>
      </trkpt>
      <trkpt lat="42.85539" lon="0.67746">
        <ele>2164.5456542969</ele>
        <time>2011-06-14T09:31:57Z</time>
      </trkpt>
      <trkpt lat="42.85537" lon="0.67752">
        <ele>2165.9875488281</ele>
        <time>2011-06-14T09:32:03Z</time>
      </trkpt>
      <trkpt lat="42.85537" lon="0.67759">
        <ele>2166.9489746094</ele>
        <time>2011-06-14T09:32:09Z</time>
      </trkpt>
      <trkpt lat="42.85536" lon="0.67767">
        <ele>2168.3908691406</ele>
        <time>2011-06-14T09:32:16Z</time>
      </trkpt>
      <trkpt lat="42.85536" lon="0.67774">
        <ele>2169.3522949219</ele>
        <time>2011-06-14T09:32:22Z</time>
      </trkpt>
      <trkpt lat="42.85532" lon="0.67782">
        <ele>2169.8327636719</ele>
        <time>2011-06-14T09:32:29Z</time>
      </trkpt>
      <trkpt lat="42.8553" lon="0.67788">
        <ele>2170.3134765625</ele>
        <time>2011-06-14T09:32:34Z</time>
      </trkpt>
      <trkpt lat="42.85523" lon="0.67802">
        <ele>2177.04296875</ele>
        <time>2011-06-14T09:37:22Z</time>
      </trkpt>
      <trkpt lat="42.85523" lon="0.67802">
        <ele>2177.04296875</ele>
        <time>2011-06-14T09:37:23Z</time>
      </trkpt>
      <trkpt lat="42.85521" lon="0.67804">
        <ele>2174.6396484375</ele>
        <time>2011-06-14T09:37:29Z</time>
      </trkpt>
      <trkpt lat="42.85516" lon="0.67806">
        <ele>2170.7941894531</ele>
        <time>2011-06-14T09:37:37Z</time>
      </trkpt>
      <trkpt lat="42.85512" lon="0.67807">
        <ele>2168.3908691406</ele>
        <time>2011-06-14T09:37:45Z</time>
      </trkpt>
      <trkpt lat="42.85509" lon="0.6781">
        <ele>2165.5070800781</ele>
        <time>2011-06-14T09:38:07Z</time>
      </trkpt>
      <trkpt lat="42.85503" lon="0.67814">
        <ele>2162.623046875</ele>
        <time>2011-06-14T09:38:14Z</time>
      </trkpt>
      <trkpt lat="42.85497" lon="0.67817">
        <ele>2160.2197265625</ele>
        <time>2011-06-14T09:38:19Z</time>
      </trkpt>
      <trkpt lat="42.8549" lon="0.67819">
        <ele>2156.8552246094</ele>
        <time>2011-06-14T09:38:26Z</time>
      </trkpt>
      <trkpt lat="42.85485" lon="0.67818">
        <ele>2153.9711914062</ele>
        <time>2011-06-14T09:38:33Z</time>
      </trkpt>
      <trkpt lat="42.8548" lon="0.67817">
        <ele>2152.5290527344</ele>
        <time>2011-06-14T09:38:39Z</time>
      </trkpt>
      <trkpt lat="42.85476" lon="0.67816">
        <ele>2150.1259765625</ele>
        <time>2011-06-14T09:38:45Z</time>
      </trkpt>
      <trkpt lat="42.85469" lon="0.67817">
        <ele>2147.2419433594</ele>
        <time>2011-06-14T09:38:51Z</time>
      </trkpt>
      <trkpt lat="42.85462" lon="0.67817">
        <ele>2143.8774414062</ele>
        <time>2011-06-14T09:38:58Z</time>
      </trkpt>
      <trkpt lat="42.85458" lon="0.67817">
        <ele>2142.916015625</ele>
        <time>2011-06-14T09:39:02Z</time>
      </trkpt>
      <trkpt lat="42.85452" lon="0.67818">
        <ele>2140.9934082031</ele>
        <time>2011-06-14T09:39:08Z</time>
      </trkpt>
      <trkpt lat="42.85447" lon="0.67816">
        <ele>2138.5900878906</ele>
        <time>2011-06-14T09:39:13Z</time>
      </trkpt>
      <trkpt lat="42.85444" lon="0.67815">
        <ele>2138.109375</ele>
        <time>2011-06-14T09:39:15Z</time>
      </trkpt>
      <trkpt lat="42.85434" lon="0.67808">
        <ele>2134.7448730469</ele>
        <time>2011-06-14T09:39:24Z</time>
      </trkpt>
      <trkpt lat="42.8543" lon="0.67808">
        <ele>2133.302734375</ele>
        <time>2011-06-14T09:39:27Z</time>
      </trkpt>
      <trkpt lat="42.85424" lon="0.67805">
        <ele>2130.8996582031</ele>
        <time>2011-06-14T09:39:32Z</time>
      </trkpt>
      <trkpt lat="42.85417" lon="0.67804">
        <ele>2128.9768066406</ele>
        <time>2011-06-14T09:39:37Z</time>
      </trkpt>
      <trkpt lat="42.85408" lon="0.67803">
        <ele>2126.5737304688</ele>
        <time>2011-06-14T09:39:42Z</time>
      </trkpt>
      <trkpt lat="42.85398" lon="0.67799">
        <ele>2123.208984375</ele>
        <time>2011-06-14T09:39:49Z</time>
      </trkpt>
      <trkpt lat="42.85389" lon="0.67795">
        <ele>2121.2861328125</ele>
        <time>2011-06-14T09:39:55Z</time>
      </trkpt>
      <trkpt lat="42.85378" lon="0.67792">
        <ele>2118.8830566406</ele>
        <time>2011-06-14T09:40:03Z</time>
      </trkpt>
      <trkpt lat="42.85369" lon="0.67793">
        <ele>2116.9604492188</ele>
        <time>2011-06-14T09:40:11Z</time>
      </trkpt>
      <trkpt lat="42.8536" lon="0.67792">
        <ele>2115.9990234375</ele>
        <time>2011-06-14T09:40:18Z</time>
      </trkpt>
      <trkpt lat="42.85349" lon="0.67792">
        <ele>2116.9604492188</ele>
        <time>2011-06-14T09:40:27Z</time>
      </trkpt>
      <trkpt lat="42.8534" lon="0.67797">
        <ele>2118.8830566406</ele>
        <time>2011-06-14T09:40:36Z</time>
      </trkpt>
      <trkpt lat="42.85338" lon="0.67799">
        <ele>2118.8830566406</ele>
        <time>2011-06-14T09:40:38Z</time>
      </trkpt>
      <trkpt lat="42.85332" lon="0.67798">
        <ele>2120.8056640625</ele>
        <time>2011-06-14T09:40:45Z</time>
      </trkpt>
      <trkpt lat="42.85331" lon="0.67798">
        <ele>2120.8056640625</ele>
        <time>2011-06-14T09:40:51Z</time>
      </trkpt>
      <trkpt lat="42.85327" lon="0.67799">
        <ele>2121.2861328125</ele>
        <time>2011-06-14T09:40:58Z</time>
      </trkpt>
      <trkpt lat="42.85321" lon="0.67799">
        <ele>2122.2475585938</ele>
        <time>2011-06-14T09:41:06Z</time>
      </trkpt>
      <trkpt lat="42.85316" lon="0.67797">
        <ele>2123.689453125</ele>
        <time>2011-06-14T09:41:12Z</time>
      </trkpt>
      <trkpt lat="42.85312" lon="0.67795">
        <ele>2124.6511230469</ele>
        <time>2011-06-14T09:41:17Z</time>
      </trkpt>
      <trkpt lat="42.85304" lon="0.67796">
        <ele>2125.1315917969</ele>
        <time>2011-06-14T09:41:24Z</time>
      </trkpt>
      <trkpt lat="42.85294" lon="0.67806">
        <ele>2125.1315917969</ele>
        <time>2011-06-14T09:41:34Z</time>
      </trkpt>
      <trkpt lat="42.85283" lon="0.67815">
        <ele>2126.0930175781</ele>
        <time>2011-06-14T09:41:44Z</time>
      </trkpt>
      <trkpt lat="42.85276" lon="0.67824">
        <ele>2125.6123046875</ele>
        <time>2011-06-14T09:41:51Z</time>
      </trkpt>
      <trkpt lat="42.85269" lon="0.67832">
        <ele>2123.689453125</ele>
        <time>2011-06-14T09:41:59Z</time>
      </trkpt>
      <trkpt lat="42.85267" lon="0.67833">
        <ele>2123.208984375</ele>
        <time>2011-06-14T09:42:01Z</time>
      </trkpt>
      <trkpt lat="42.85257" lon="0.67837">
        <ele>2120.3249511719</ele>
        <time>2011-06-14T09:42:07Z</time>
      </trkpt>
      <trkpt lat="42.85251" lon="0.67839">
        <ele>2119.8442382812</ele>
        <time>2011-06-14T09:42:09Z</time>
      </trkpt>
      <trkpt lat="42.85239" lon="0.67845">
        <ele>2117.4409179688</ele>
        <time>2011-06-14T09:42:15Z</time>
      </trkpt>
      <trkpt lat="42.85231" lon="0.67848">
        <ele>2115.9990234375</ele>
        <time>2011-06-14T09:42:23Z</time>
      </trkpt>
      <trkpt lat="42.85224" lon="0.6785">
        <ele>2115.0378417969</ele>
        <time>2011-06-14T09:42:29Z</time>
      </trkpt>
      <trkpt lat="42.85212" lon="0.67852">
        <ele>2115.0378417969</ele>
        <time>2011-06-14T09:42:39Z</time>
      </trkpt>
      <trkpt lat="42.85201" lon="0.67855">
        <ele>2116.4797363281</ele>
        <time>2011-06-14T09:42:48Z</time>
      </trkpt>
      <trkpt lat="42.85189" lon="0.67861">
        <ele>2117.4409179688</ele>
        <time>2011-06-14T09:42:57Z</time>
      </trkpt>
      <trkpt lat="42.85178" lon="0.67869">
        <ele>2117.9216308594</ele>
        <time>2011-06-14T09:43:06Z</time>
      </trkpt>
      <trkpt lat="42.85167" lon="0.67873">
        <ele>2118.8830566406</ele>
        <time>2011-06-14T09:43:15Z</time>
      </trkpt>
      <trkpt lat="42.85157" lon="0.67878">
        <ele>2120.8056640625</ele>
        <time>2011-06-14T09:43:24Z</time>
      </trkpt>
      <trkpt lat="42.85147" lon="0.67883">
        <ele>2122.2475585938</ele>
        <time>2011-06-14T09:43:33Z</time>
      </trkpt>
      <trkpt lat="42.8514" lon="0.67886">
        <ele>2123.208984375</ele>
        <time>2011-06-14T09:43:39Z</time>
      </trkpt>
      <trkpt lat="42.85132" lon="0.67892">
        <ele>2124.1704101562</ele>
        <time>2011-06-14T09:43:46Z</time>
      </trkpt>
      <trkpt lat="42.85123" lon="0.67897">
        <ele>2125.1315917969</ele>
        <time>2011-06-14T09:43:54Z</time>
      </trkpt>
      <trkpt lat="42.85117" lon="0.67894">
        <ele>2125.6123046875</ele>
        <time>2011-06-14T09:43:59Z</time>
      </trkpt>
      <trkpt lat="42.85115" lon="0.67891">
        <ele>2126.0930175781</ele>
        <time>2011-06-14T09:44:02Z</time>
      </trkpt>
      <trkpt lat="42.85109" lon="0.67888">
        <ele>2128.015625</ele>
        <time>2011-06-14T09:44:09Z</time>
      </trkpt>
      <trkpt lat="42.85103" lon="0.67889">
        <ele>2128.4963378906</ele>
        <time>2011-06-14T09:44:15Z</time>
      </trkpt>
      <trkpt lat="42.85098" lon="0.67892">
        <ele>2129.4575195312</ele>
        <time>2011-06-14T09:44:20Z</time>
      </trkpt>
      <trkpt lat="42.85089" lon="0.67896">
        <ele>2130.8996582031</ele>
        <time>2011-06-14T09:44:29Z</time>
      </trkpt>
      <trkpt lat="42.85079" lon="0.679">
        <ele>2133.302734375</ele>
        <time>2011-06-14T09:44:39Z</time>
      </trkpt>
      <trkpt lat="42.85073" lon="0.67903">
        <ele>2134.7448730469</ele>
        <time>2011-06-14T09:44:45Z</time>
      </trkpt>
      <trkpt lat="42.85065" lon="0.67908">
        <ele>2137.1479492188</ele>
        <time>2011-06-14T09:44:53Z</time>
      </trkpt>
      <trkpt lat="42.85057" lon="0.67916">
        <ele>2139.0705566406</ele>
        <time>2011-06-14T09:45:02Z</time>
      </trkpt>
      <trkpt lat="42.85048" lon="0.67921">
        <ele>2140.0322265625</ele>
        <time>2011-06-14T09:45:11Z</time>
      </trkpt>
      <trkpt lat="42.85041" lon="0.67925">
        <ele>2140.5126953125</ele>
        <time>2011-06-14T09:45:18Z</time>
      </trkpt>
      <trkpt lat="42.85031" lon="0.67922">
        <ele>2140.5126953125</ele>
        <time>2011-06-14T09:45:27Z</time>
      </trkpt>
      <trkpt lat="42.85023" lon="0.6792">
        <ele>2140.0322265625</ele>
        <time>2011-06-14T09:45:33Z</time>
      </trkpt>
      <trkpt lat="42.85017" lon="0.67916">
        <ele>2139.0705566406</ele>
        <time>2011-06-14T09:45:38Z</time>
      </trkpt>
      <trkpt lat="42.85008" lon="0.6791">
        <ele>2138.109375</ele>
        <time>2011-06-14T09:45:45Z</time>
      </trkpt>
      <trkpt lat="42.84996" lon="0.67903">
        <ele>2136.1867675781</ele>
        <time>2011-06-14T09:45:54Z</time>
      </trkpt>
      <trkpt lat="42.84986" lon="0.67896">
        <ele>2134.2641601562</ele>
        <time>2011-06-14T09:46:03Z</time>
      </trkpt>
      <trkpt lat="42.84974" lon="0.6789">
        <ele>2132.3415527344</ele>
        <time>2011-06-14T09:46:12Z</time>
      </trkpt>
      <trkpt lat="42.84964" lon="0.67885">
        <ele>2131.3801269531</ele>
        <time>2011-06-14T09:46:19Z</time>
      </trkpt>
      <trkpt lat="42.84956" lon="0.67883">
        <ele>2129.4575195312</ele>
        <time>2011-06-14T09:46:26Z</time>
      </trkpt>
      <trkpt lat="42.84946" lon="0.67885">
        <ele>2127.0544433594</ele>
        <time>2011-06-14T09:46:33Z</time>
      </trkpt>
      <trkpt lat="42.84929" lon="0.67887">
        <ele>2122.2475585938</ele>
        <time>2011-06-14T09:46:41Z</time>
      </trkpt>
      <trkpt lat="42.84913" lon="0.6789">
        <ele>2118.40234375</ele>
        <time>2011-06-14T09:46:47Z</time>
      </trkpt>
      <trkpt lat="42.84895" lon="0.67888">
        <ele>2114.5571289062</ele>
        <time>2011-06-14T09:46:54Z</time>
      </trkpt>
      <trkpt lat="42.84884" lon="0.67887">
        <ele>2112.6345214844</ele>
        <time>2011-06-14T09:46:59Z</time>
      </trkpt>
      <trkpt lat="42.84874" lon="0.67885">
        <ele>2112.1538085938</ele>
        <time>2011-06-14T09:47:07Z</time>
      </trkpt>
      <trkpt lat="42.84868" lon="0.67875">
        <ele>2112.1538085938</ele>
        <time>2011-06-14T09:47:14Z</time>
      </trkpt>
      <trkpt lat="42.84864" lon="0.67865">
        <ele>2112.6345214844</ele>
        <time>2011-06-14T09:47:23Z</time>
      </trkpt>
      <trkpt lat="42.84861" lon="0.67862">
        <ele>2112.6345214844</ele>
        <time>2011-06-14T09:47:31Z</time>
      </trkpt>
      <trkpt lat="42.84855" lon="0.67853">
        <ele>2113.115234375</ele>
        <time>2011-06-14T09:47:41Z</time>
      </trkpt>
      <trkpt lat="42.8485" lon="0.67844">
        <ele>2114.0764160156</ele>
        <time>2011-06-14T09:47:48Z</time>
      </trkpt>
      <trkpt lat="42.84845" lon="0.67834">
        <ele>2115.0378417969</ele>
        <time>2011-06-14T09:47:55Z</time>
      </trkpt>
      <trkpt lat="42.84837" lon="0.67823">
        <ele>2116.4797363281</ele>
        <time>2011-06-14T09:48:04Z</time>
      </trkpt>
      <trkpt lat="42.84833" lon="0.67815">
        <ele>2117.4409179688</ele>
        <time>2011-06-14T09:48:10Z</time>
      </trkpt>
      <trkpt lat="42.84826" lon="0.67803">
        <ele>2119.3637695312</ele>
        <time>2011-06-14T09:48:19Z</time>
      </trkpt>
      <trkpt lat="42.84821" lon="0.67795">
        <ele>2120.3249511719</ele>
        <time>2011-06-14T09:48:26Z</time>
      </trkpt>
      <trkpt lat="42.84816" lon="0.67785">
        <ele>2121.7668457031</ele>
        <time>2011-06-14T09:48:33Z</time>
      </trkpt>
      <trkpt lat="42.84812" lon="0.67776">
        <ele>2121.7668457031</ele>
        <time>2011-06-14T09:48:41Z</time>
      </trkpt>
      <trkpt lat="42.84805" lon="0.67769">
        <ele>2122.7282714844</ele>
        <time>2011-06-14T09:48:49Z</time>
      </trkpt>
      <trkpt lat="42.848" lon="0.67765">
        <ele>2123.689453125</ele>
        <time>2011-06-14T09:48:54Z</time>
      </trkpt>
      <trkpt lat="42.84794" lon="0.6776">
        <ele>2124.6511230469</ele>
        <time>2011-06-14T09:49:00Z</time>
      </trkpt>
      <trkpt lat="42.84788" lon="0.67756">
        <ele>2125.6123046875</ele>
        <time>2011-06-14T09:49:06Z</time>
      </trkpt>
      <trkpt lat="42.8478" lon="0.67754">
        <ele>2127.0544433594</ele>
        <time>2011-06-14T09:49:13Z</time>
      </trkpt>
      <trkpt lat="42.84775" lon="0.6775">
        <ele>2127.5349121094</ele>
        <time>2011-06-14T09:49:18Z</time>
      </trkpt>
      <trkpt lat="42.84769" lon="0.67742">
        <ele>2128.9768066406</ele>
        <time>2011-06-14T09:49:25Z</time>
      </trkpt>
      <trkpt lat="42.84765" lon="0.67733">
        <ele>2130.4189453125</ele>
        <time>2011-06-14T09:49:32Z</time>
      </trkpt>
      <trkpt lat="42.84759" lon="0.67722">
        <ele>2132.3415527344</ele>
        <time>2011-06-14T09:49:41Z</time>
      </trkpt>
      <trkpt lat="42.84756" lon="0.67718">
        <ele>2133.302734375</ele>
        <time>2011-06-14T09:49:45Z</time>
      </trkpt>
      <trkpt lat="42.8475" lon="0.6771">
        <ele>2135.2253417969</ele>
        <time>2011-06-14T09:49:52Z</time>
      </trkpt>
      <trkpt lat="42.84748" lon="0.67706">
        <ele>2136.1867675781</ele>
        <time>2011-06-14T09:49:55Z</time>
      </trkpt>
      <trkpt lat="42.84746" lon="0.67702">
        <ele>2136.6672363281</ele>
        <time>2011-06-14T09:49:59Z</time>
      </trkpt>
      <trkpt lat="42.84745" lon="0.67698">
        <ele>2138.109375</ele>
        <time>2011-06-14T09:50:05Z</time>
      </trkpt>
      <trkpt lat="42.84742" lon="0.67693">
        <ele>2139.5512695312</ele>
        <time>2011-06-14T09:50:11Z</time>
      </trkpt>
      <trkpt lat="42.8474" lon="0.67688">
        <ele>2140.9934082031</ele>
        <time>2011-06-14T09:50:17Z</time>
      </trkpt>
      <trkpt lat="42.84737" lon="0.67682">
        <ele>2142.435546875</ele>
        <time>2011-06-14T09:50:23Z</time>
      </trkpt>
      <trkpt lat="42.84734" lon="0.67676">
        <ele>2143.8774414062</ele>
        <time>2011-06-14T09:50:29Z</time>
      </trkpt>
      <trkpt lat="42.84731" lon="0.6767">
        <ele>2145.3193359375</ele>
        <time>2011-06-14T09:50:35Z</time>
      </trkpt>
      <trkpt lat="42.84727" lon="0.67664">
        <ele>2146.7612304688</ele>
        <time>2011-06-14T09:50:42Z</time>
      </trkpt>
      <trkpt lat="42.84724" lon="0.6766">
        <ele>2148.203125</ele>
        <time>2011-06-14T09:50:47Z</time>
      </trkpt>
      <trkpt lat="42.8472" lon="0.67654">
        <ele>2149.6452636719</ele>
        <time>2011-06-14T09:50:55Z</time>
      </trkpt>
      <trkpt lat="42.84719" lon="0.6765">
        <ele>2150.1259765625</ele>
        <time>2011-06-14T09:51:01Z</time>
      </trkpt>
      <trkpt lat="42.84716" lon="0.67646">
        <ele>2150.6064453125</ele>
        <time>2011-06-14T09:51:05Z</time>
      </trkpt>
      <trkpt lat="42.84714" lon="0.67639">
        <ele>2152.0483398438</ele>
        <time>2011-06-14T09:51:12Z</time>
      </trkpt>
      <trkpt lat="42.84711" lon="0.67633">
        <ele>2153.9711914062</ele>
        <time>2011-06-14T09:51:19Z</time>
      </trkpt>
      <trkpt lat="42.8471" lon="0.67628">
        <ele>2155.4130859375</ele>
        <time>2011-06-14T09:51:24Z</time>
      </trkpt>
      <trkpt lat="42.84708" lon="0.67621">
        <ele>2157.3359375</ele>
        <time>2011-06-14T09:51:31Z</time>
      </trkpt>
      <trkpt lat="42.84707" lon="0.67617">
        <ele>2158.7778320312</ele>
        <time>2011-06-14T09:51:36Z</time>
      </trkpt>
      <trkpt lat="42.84706" lon="0.67613">
        <ele>2159.7390136719</ele>
        <time>2011-06-14T09:51:41Z</time>
      </trkpt>
      <trkpt lat="42.84703" lon="0.67608">
        <ele>2161.1811523438</ele>
        <time>2011-06-14T09:51:47Z</time>
      </trkpt>
      <trkpt lat="42.84702" lon="0.67602">
        <ele>2163.1037597656</ele>
        <time>2011-06-14T09:51:53Z</time>
      </trkpt>
      <trkpt lat="42.84704" lon="0.67592">
        <ele>2165.0263671875</ele>
        <time>2011-06-14T09:52:02Z</time>
      </trkpt>
      <trkpt lat="42.84702" lon="0.67587">
        <ele>2165.9875488281</ele>
        <time>2011-06-14T09:52:08Z</time>
      </trkpt>
      <trkpt lat="42.84698" lon="0.67581">
        <ele>2168.3908691406</ele>
        <time>2011-06-14T09:52:15Z</time>
      </trkpt>
      <trkpt lat="42.84697" lon="0.67576">
        <ele>2170.3134765625</ele>
        <time>2011-06-14T09:52:23Z</time>
      </trkpt>
      <trkpt lat="42.84694" lon="0.67575">
        <ele>2170.3134765625</ele>
        <time>2011-06-14T09:52:28Z</time>
      </trkpt>
      <trkpt lat="42.84694" lon="0.67573">
        <ele>2170.7941894531</ele>
        <time>2011-06-14T09:52:34Z</time>
      </trkpt>
      <trkpt lat="42.84692" lon="0.6757">
        <ele>2170.3134765625</ele>
        <time>2011-06-14T09:52:41Z</time>
      </trkpt>
      <trkpt lat="42.84692" lon="0.67569">
        <ele>2170.7941894531</ele>
        <time>2011-06-14T09:52:47Z</time>
      </trkpt>
      <trkpt lat="42.84693" lon="0.67569">
        <ele>2171.2746582031</ele>
        <time>2011-06-14T09:52:51Z</time>
      </trkpt>
      <trkpt lat="42.84691" lon="0.67565">
        <ele>2172.236328125</ele>
        <time>2011-06-14T09:52:56Z</time>
      </trkpt>
      <trkpt lat="42.8469" lon="0.67562">
        <ele>2174.1589355469</ele>
        <time>2011-06-14T09:53:02Z</time>
      </trkpt>
      <trkpt lat="42.84689" lon="0.67561">
        <ele>2174.1589355469</ele>
        <time>2011-06-14T09:53:12Z</time>
      </trkpt>
      <trkpt lat="42.84688" lon="0.67559">
        <ele>2175.6008300781</ele>
        <time>2011-06-14T09:53:22Z</time>
      </trkpt>
      <trkpt lat="42.84685" lon="0.67555">
        <ele>2178.0041503906</ele>
        <time>2011-06-14T09:53:29Z</time>
      </trkpt>
      <trkpt lat="42.84681" lon="0.67551">
        <ele>2180.4074707031</ele>
        <time>2011-06-14T09:53:35Z</time>
      </trkpt>
      <trkpt lat="42.84677" lon="0.67548">
        <ele>2181.8493652344</ele>
        <time>2011-06-14T09:53:42Z</time>
      </trkpt>
      <trkpt lat="42.84674" lon="0.67546">
        <ele>2183.7719726562</ele>
        <time>2011-06-14T09:53:47Z</time>
      </trkpt>
      <trkpt lat="42.8467" lon="0.67544">
        <ele>2185.2138671875</ele>
        <time>2011-06-14T09:53:52Z</time>
      </trkpt>
      <trkpt lat="42.84667" lon="0.67542">
        <ele>2186.6557617188</ele>
        <time>2011-06-14T09:53:57Z</time>
      </trkpt>
      <trkpt lat="42.84663" lon="0.67541">
        <ele>2188.0981445312</ele>
        <time>2011-06-14T09:54:03Z</time>
      </trkpt>
      <trkpt lat="42.84658" lon="0.67539">
        <ele>2189.5400390625</ele>
        <time>2011-06-14T09:54:10Z</time>
      </trkpt>
      <trkpt lat="42.84656" lon="0.67539">
        <ele>2190.0207519531</ele>
        <time>2011-06-14T09:54:15Z</time>
      </trkpt>
      <trkpt lat="42.84656" lon="0.67539">
        <ele>2190.0207519531</ele>
        <time>2011-06-14T09:54:24Z</time>
      </trkpt>
      <trkpt lat="42.84651" lon="0.67538">
        <ele>2191.4626464844</ele>
        <time>2011-06-14T09:54:30Z</time>
      </trkpt>
      <trkpt lat="42.84645" lon="0.67536">
        <ele>2192.9045410156</ele>
        <time>2011-06-14T09:54:37Z</time>
      </trkpt>
      <trkpt lat="42.84641" lon="0.67534">
        <ele>2194.3464355469</ele>
        <time>2011-06-14T09:54:42Z</time>
      </trkpt>
      <trkpt lat="42.84637" lon="0.67532">
        <ele>2195.7885742188</ele>
        <time>2011-06-14T09:54:47Z</time>
      </trkpt>
      <trkpt lat="42.84632" lon="0.67533">
        <ele>2196.7497558594</ele>
        <time>2011-06-14T09:54:53Z</time>
      </trkpt>
      <trkpt lat="42.84627" lon="0.67532">
        <ele>2197.7111816406</ele>
        <time>2011-06-14T09:54:58Z</time>
      </trkpt>
      <trkpt lat="42.84621" lon="0.67529">
        <ele>2199.6337890625</ele>
        <time>2011-06-14T09:55:04Z</time>
      </trkpt>
      <trkpt lat="42.84615" lon="0.67526">
        <ele>2201.5563964844</ele>
        <time>2011-06-14T09:55:12Z</time>
      </trkpt>
      <trkpt lat="42.8461" lon="0.6752">
        <ele>2202.0368652344</ele>
        <time>2011-06-14T09:55:22Z</time>
      </trkpt>
      <trkpt lat="42.8461" lon="0.67517">
        <ele>2201.5563964844</ele>
        <time>2011-06-14T09:55:33Z</time>
      </trkpt>
      <trkpt lat="42.8461" lon="0.67514">
        <ele>2201.5563964844</ele>
        <time>2011-06-14T09:55:39Z</time>
      </trkpt>
      <trkpt lat="42.84611" lon="0.67506">
        <ele>2201.5563964844</ele>
        <time>2011-06-14T09:55:44Z</time>
      </trkpt>
      <trkpt lat="42.84611" lon="0.675">
        <ele>2201.5563964844</ele>
        <time>2011-06-14T09:55:48Z</time>
      </trkpt>
      <trkpt lat="42.84611" lon="0.67488">
        <ele>2201.0756835938</ele>
        <time>2011-06-14T09:55:54Z</time>
      </trkpt>
      <trkpt lat="42.84611" lon="0.67488">
        <ele>2200.5949707031</ele>
        <time>2011-06-14T09:56:06Z</time>
      </trkpt>
      <trkpt lat="42.84611" lon="0.6748">
        <ele>2200.5949707031</ele>
        <time>2011-06-14T09:56:13Z</time>
      </trkpt>
      <trkpt lat="42.8461" lon="0.6746">
        <ele>2198.6723632812</ele>
        <time>2011-06-14T09:56:19Z</time>
      </trkpt>
      <trkpt lat="42.84605" lon="0.6744">
        <ele>2196.7497558594</ele>
        <time>2011-06-14T09:56:25Z</time>
      </trkpt>
      <trkpt lat="42.846" lon="0.67419">
        <ele>2192.9045410156</ele>
        <time>2011-06-14T09:56:31Z</time>
      </trkpt>
      <trkpt lat="42.84593" lon="0.67403">
        <ele>2190.5012207031</ele>
        <time>2011-06-14T09:56:36Z</time>
      </trkpt>
      <trkpt lat="42.84584" lon="0.6738">
        <ele>2189.0593261719</ele>
        <time>2011-06-14T09:56:42Z</time>
      </trkpt>
      <trkpt lat="42.84574" lon="0.67361">
        <ele>2187.6171875</ele>
        <time>2011-06-14T09:56:48Z</time>
      </trkpt>
      <trkpt lat="42.84565" lon="0.67344">
        <ele>2184.2526855469</ele>
        <time>2011-06-14T09:56:53Z</time>
      </trkpt>
      <trkpt lat="42.84554" lon="0.67325">
        <ele>2182.810546875</ele>
        <time>2011-06-14T09:56:59Z</time>
      </trkpt>
      <trkpt lat="42.84547" lon="0.67313">
        <ele>2182.810546875</ele>
        <time>2011-06-14T09:57:03Z</time>
      </trkpt>
      <trkpt lat="42.84539" lon="0.67299">
        <ele>2183.7719726562</ele>
        <time>2011-06-14T09:57:08Z</time>
      </trkpt>
      <trkpt lat="42.84531" lon="0.67288">
        <ele>2182.330078125</ele>
        <time>2011-06-14T09:57:13Z</time>
      </trkpt>
      <trkpt lat="42.84526" lon="0.67277">
        <ele>2179.9267578125</ele>
        <time>2011-06-14T09:57:17Z</time>
      </trkpt>
      <trkpt lat="42.84516" lon="0.67261">
        <ele>2176.5622558594</ele>
        <time>2011-06-14T09:57:23Z</time>
      </trkpt>
      <trkpt lat="42.84509" lon="0.6725">
        <ele>2174.6396484375</ele>
        <time>2011-06-14T09:57:27Z</time>
      </trkpt>
      <trkpt lat="42.84506" lon="0.67244">
        <ele>2173.1977539062</ele>
        <time>2011-06-14T09:57:29Z</time>
      </trkpt>
      <trkpt lat="42.84497" lon="0.67225">
        <ele>2169.8327636719</ele>
        <time>2011-06-14T09:57:35Z</time>
      </trkpt>
      <trkpt lat="42.84496" lon="0.67222">
        <ele>2168.8715820312</ele>
        <time>2011-06-14T09:57:36Z</time>
      </trkpt>
      <trkpt lat="42.84484" lon="0.67205">
        <ele>2163.5842285156</ele>
        <time>2011-06-14T09:57:43Z</time>
      </trkpt>
      <trkpt lat="42.84475" lon="0.67188">
        <ele>2160.2197265625</ele>
        <time>2011-06-14T09:57:49Z</time>
      </trkpt>
      <trkpt lat="42.84468" lon="0.67169">
        <ele>2157.8166503906</ele>
        <time>2011-06-14T09:57:55Z</time>
      </trkpt>
      <trkpt lat="42.84464" lon="0.67154">
        <ele>2156.3745117188</ele>
        <time>2011-06-14T09:58:00Z</time>
      </trkpt>
      <trkpt lat="42.84462" lon="0.67143">
        <ele>2156.3745117188</ele>
        <time>2011-06-14T09:58:03Z</time>
      </trkpt>
      <trkpt lat="42.84457" lon="0.67126">
        <ele>2156.3745117188</ele>
        <time>2011-06-14T09:58:08Z</time>
      </trkpt>
      <trkpt lat="42.84453" lon="0.67105">
        <ele>2157.3359375</ele>
        <time>2011-06-14T09:58:14Z</time>
      </trkpt>
      <trkpt lat="42.84448" lon="0.67089">
        <ele>2156.8552246094</ele>
        <time>2011-06-14T09:58:19Z</time>
      </trkpt>
      <trkpt lat="42.84445" lon="0.67077">
        <ele>2155.8935546875</ele>
        <time>2011-06-14T09:58:23Z</time>
      </trkpt>
      <trkpt lat="42.84439" lon="0.67061">
        <ele>2154.9323730469</ele>
        <time>2011-06-14T09:58:28Z</time>
      </trkpt>
      <trkpt lat="42.84433" lon="0.67042">
        <ele>2153.009765625</ele>
        <time>2011-06-14T09:58:34Z</time>
      </trkpt>
      <trkpt lat="42.84431" lon="0.67024">
        <ele>2149.1645507812</ele>
        <time>2011-06-14T09:58:40Z</time>
      </trkpt>
      <trkpt lat="42.84431" lon="0.67005">
        <ele>2146.2807617188</ele>
        <time>2011-06-14T09:58:46Z</time>
      </trkpt>
      <trkpt lat="42.84431" lon="0.66985">
        <ele>2143.8774414062</ele>
        <time>2011-06-14T09:58:52Z</time>
      </trkpt>
      <trkpt lat="42.84427" lon="0.66965">
        <ele>2140.5126953125</ele>
        <time>2011-06-14T09:58:58Z</time>
      </trkpt>
      <trkpt lat="42.84425" lon="0.6695">
        <ele>2138.109375</ele>
        <time>2011-06-14T09:59:03Z</time>
      </trkpt>
      <trkpt lat="42.84422" lon="0.66928">
        <ele>2135.2253417969</ele>
        <time>2011-06-14T09:59:10Z</time>
      </trkpt>
      <trkpt lat="42.8442" lon="0.66912">
        <ele>2132.8220214844</ele>
        <time>2011-06-14T09:59:15Z</time>
      </trkpt>
      <trkpt lat="42.84417" lon="0.66896">
        <ele>2130.8996582031</ele>
        <time>2011-06-14T09:59:20Z</time>
      </trkpt>
      <trkpt lat="42.84415" lon="0.66877">
        <ele>2128.4963378906</ele>
        <time>2011-06-14T09:59:27Z</time>
      </trkpt>
      <trkpt lat="42.84415" lon="0.66869">
        <ele>2127.5349121094</ele>
        <time>2011-06-14T09:59:33Z</time>
      </trkpt>
      <trkpt lat="42.84418" lon="0.66863">
        <ele>2127.0544433594</ele>
        <time>2011-06-14T09:59:41Z</time>
      </trkpt>
      <trkpt lat="42.84417" lon="0.66861">
        <ele>2126.0930175781</ele>
        <time>2011-06-14T09:59:51Z</time>
      </trkpt>
      <trkpt lat="42.84416" lon="0.66861">
        <ele>2125.1315917969</ele>
        <time>2011-06-14T09:59:58Z</time>
      </trkpt>
      <trkpt lat="42.84416" lon="0.66861">
        <ele>2125.1315917969</ele>
        <time>2011-06-14T10:00:00Z</time>
      </trkpt>
      <trkpt lat="42.84414" lon="0.66849">
        <ele>2123.689453125</ele>
        <time>2011-06-14T10:00:05Z</time>
      </trkpt>
      <trkpt lat="42.84411" lon="0.66829">
        <ele>2121.2861328125</ele>
        <time>2011-06-14T10:00:11Z</time>
      </trkpt>
      <trkpt lat="42.84409" lon="0.66807">
        <ele>2117.4409179688</ele>
        <time>2011-06-14T10:00:18Z</time>
      </trkpt>
      <trkpt lat="42.84407" lon="0.66794">
        <ele>2115.0378417969</ele>
        <time>2011-06-14T10:00:23Z</time>
      </trkpt>
      <trkpt lat="42.84402" lon="0.6678">
        <ele>2113.115234375</ele>
        <time>2011-06-14T10:00:28Z</time>
      </trkpt>
      <trkpt lat="42.84397" lon="0.66759">
        <ele>2109.7504882812</ele>
        <time>2011-06-14T10:00:35Z</time>
      </trkpt>
      <trkpt lat="42.84394" lon="0.66737">
        <ele>2107.3471679688</ele>
        <time>2011-06-14T10:00:42Z</time>
      </trkpt>
      <trkpt lat="42.84388" lon="0.66723">
        <ele>2105.9050292969</ele>
        <time>2011-06-14T10:00:47Z</time>
      </trkpt>
      <trkpt lat="42.84376" lon="0.66706">
        <ele>2102.5405273438</ele>
        <time>2011-06-14T10:00:54Z</time>
      </trkpt>
      <trkpt lat="42.84365" lon="0.6669">
        <ele>2100.6179199219</ele>
        <time>2011-06-14T10:01:00Z</time>
      </trkpt>
      <trkpt lat="42.84358" lon="0.66675">
        <ele>2099.1760253906</ele>
        <time>2011-06-14T10:01:05Z</time>
      </trkpt>
      <trkpt lat="42.84347" lon="0.6666">
        <ele>2096.7727050781</ele>
        <time>2011-06-14T10:01:11Z</time>
      </trkpt>
      <trkpt lat="42.84338" lon="0.66641">
        <ele>2095.3308105469</ele>
        <time>2011-06-14T10:01:17Z</time>
      </trkpt>
      <trkpt lat="42.84328" lon="0.66624">
        <ele>2094.3693847656</ele>
        <time>2011-06-14T10:01:23Z</time>
      </trkpt>
      <trkpt lat="42.84319" lon="0.66605">
        <ele>2092.4470214844</ele>
        <time>2011-06-14T10:01:30Z</time>
      </trkpt>
      <trkpt lat="42.8431" lon="0.66589">
        <ele>2092.4470214844</ele>
        <time>2011-06-14T10:01:36Z</time>
      </trkpt>
      <trkpt lat="42.84301" lon="0.66578">
        <ele>2092.9274902344</ele>
        <time>2011-06-14T10:01:41Z</time>
      </trkpt>
      <trkpt lat="42.8429" lon="0.6656">
        <ele>2092.4470214844</ele>
        <time>2011-06-14T10:01:48Z</time>
      </trkpt>
      <trkpt lat="42.84282" lon="0.66543">
        <ele>2092.9274902344</ele>
        <time>2011-06-14T10:01:54Z</time>
      </trkpt>
      <trkpt lat="42.84274" lon="0.66527">
        <ele>2093.8889160156</ele>
        <time>2011-06-14T10:02:00Z</time>
      </trkpt>
      <trkpt lat="42.84266" lon="0.66513">
        <ele>2094.8500976562</ele>
        <time>2011-06-14T10:02:05Z</time>
      </trkpt>
      <trkpt lat="42.84262" lon="0.66506">
        <ele>2093.8889160156</ele>
        <time>2011-06-14T10:02:09Z</time>
      </trkpt>
      <trkpt lat="42.84259" lon="0.66501">
        <ele>2093.8889160156</ele>
        <time>2011-06-14T10:02:13Z</time>
      </trkpt>
      <trkpt lat="42.84256" lon="0.66498">
        <ele>2092.9274902344</ele>
        <time>2011-06-14T10:02:16Z</time>
      </trkpt>
      <trkpt lat="42.84249" lon="0.66487">
        <ele>2091.4853515625</ele>
        <time>2011-06-14T10:02:26Z</time>
      </trkpt>
      <trkpt lat="42.84241" lon="0.66478">
        <ele>2088.6015625</ele>
        <time>2011-06-14T10:02:35Z</time>
      </trkpt>
      <trkpt lat="42.84232" lon="0.66468">
        <ele>2086.1982421875</ele>
        <time>2011-06-14T10:02:41Z</time>
      </trkpt>
      <trkpt lat="42.84224" lon="0.66456">
        <ele>2085.2368164062</ele>
        <time>2011-06-14T10:02:46Z</time>
      </trkpt>
      <trkpt lat="42.84219" lon="0.66447">
        <ele>2083.794921875</ele>
        <time>2011-06-14T10:02:49Z</time>
      </trkpt>
      <trkpt lat="42.84204" lon="0.66428">
        <ele>2083.3142089844</ele>
        <time>2011-06-14T10:02:56Z</time>
      </trkpt>
      <trkpt lat="42.84195" lon="0.66414">
        <ele>2082.3530273438</ele>
        <time>2011-06-14T10:03:01Z</time>
      </trkpt>
      <trkpt lat="42.84193" lon="0.66412">
        <ele>2081.8723144531</ele>
        <time>2011-06-14T10:03:02Z</time>
      </trkpt>
      <trkpt lat="42.84187" lon="0.66402">
        <ele>2080.9111328125</ele>
        <time>2011-06-14T10:03:07Z</time>
      </trkpt>
      <trkpt lat="42.84182" lon="0.66393">
        <ele>2078.5078125</ele>
        <time>2011-06-14T10:03:17Z</time>
      </trkpt>
      <trkpt lat="42.84179" lon="0.66388">
        <ele>2077.5463867188</ele>
        <time>2011-06-14T10:03:26Z</time>
      </trkpt>
      <trkpt lat="42.8418" lon="0.66389">
        <ele>2075.1428222656</ele>
        <time>2011-06-14T10:03:48Z</time>
      </trkpt>
      <trkpt lat="42.8418" lon="0.66389">
        <ele>2075.1428222656</ele>
        <time>2011-06-14T10:03:49Z</time>
      </trkpt>
    </trkseg>
  </trk>
</gpx>